Observation data for Romero 11SSW on 07/17/2019      Previous  Date       Current Mesonet Observations  Soil Data  Daily Summary Page  Observations in Plain Language
KBR1 170500Z 22014KT 24/17 A3005 RMK A01 T02420174  RH  066%=      5-min Rain = 0
KBR1 170501Z 21017KT 24/17 A3005 RMK A01 T02410173  RH  066%=      5-min Rain = 0
KBR1 170502Z 21019KT 24/17 A3004 RMK A01 T02400171  RH  065%=      5-min Rain = 0
KBR1 170503Z 20021KT 24/17 A3004 RMK A01 T02360169  RH  066%=      5-min Rain = 0.02
KBR1 170504Z 20022KT 23/17 A3004 RMK A01 T02320168  RH  067%=      5-min Rain = 0.01
KBR1 170505Z 20024KT 23/17 A3004 RMK A01 T02290166  RH  068%=      5-min Rain = 0.01
KBR1 170506Z 20024KT 23/17 A3004 RMK A01 T02280165  RH  068%=      5-min Rain = 0.01
KBR1 170507Z 20025KT 23/17 A3004 RMK A01 T02250165  RH  069%=      5-min Rain = 0
KBR1 170508Z 21024KT 23/16 A3004 RMK A01 T02250163  RH  068%=      5-min Rain = 0.01
KBR1 170509Z 21022KT 23/16 A3004 RMK A01 T02260164  RH  068%=      5-min Rain = 0
KBR1 170510Z 21018KT 23/16 A3004 RMK A01 T02270164  RH  067%=      5-min Rain = 0.01
KBR1 170511Z 20015KT 23/17 A3004 RMK A01 T02260167  RH  069%=      5-min Rain = 0
KBR1 170512Z 21016KT 23/17 A3004 RMK A01 T02260167  RH  070%=      5-min Rain = 0.01
KBR1 170513Z 21020KT 22/17 A3004 RMK A01 T02240172  RH  072%=      5-min Rain = 0
KBR1 170514Z 21019KT 22/17 A3004 RMK A01 T02230172  RH  073%=      5-min Rain = 0
KBR1 170515Z 21018KT 22/17 A3004 RMK A01 T02230172  RH  073%=      5-min Rain = 0
KBR1 170516Z 21018KT 22/17 A3004 RMK A01 T02230172  RH  073%=      5-min Rain = 0
KBR1 170517Z 20022KT 22/17 A3004 RMK A01 T02230169  RH  072%=      5-min Rain = 0.01
KBR1 170518Z 20020KT 23/17 A3004 RMK A01 T02250168  RH  070%=      5-min Rain = 0
KBR1 170519Z 20020KT 23/16 A3004 RMK A01 T02280164  RH  067%=      5-min Rain = 0
KBR1 170520Z 20018KT 23/16 A3004 RMK A01 T02300164  RH  066%=      5-min Rain = 0
KBR1 170521Z 20016KT 23/17 A3004 RMK A01 T02300169  RH  068%=      5-min Rain = 0
KBR1 170522Z 20016KT 23/17 A3004 RMK A01 T02270169  RH  070%=      5-min Rain = 0
KBR1 170523Z 20014KT 23/17 A3004 RMK A01 T02270168  RH  069%=      5-min Rain = 0.01
KBR1 170524Z 20013KT 23/17 A3004 RMK A01 T02270170  RH  070%=      5-min Rain = 0
KBR1 170525Z 20013KT 23/17 A3004 RMK A01 T02250172  RH  072%=      5-min Rain = 0
KBR1 170526Z 20011KT 22/17 A3004 RMK A01 T02230174  RH  073%=      5-min Rain = 0
KBR1 170527Z 20011KT 22/18 A3004 RMK A01 T02220175  RH  074%=      5-min Rain = 0
KBR1 170528Z 20011KT 22/18 A3004 RMK A01 T02220176  RH  075%=      5-min Rain = 0
KBR1 170529Z 20010KT 22/18 A3004 RMK A01 T02210176  RH  076%=      5-min Rain = 0
KBR1 170530Z 20009KT 22/18 A3004 RMK A01 T02220176  RH  075%=      5-min Rain = 0
KBR1 170531Z 21009KT 22/18 A3004 RMK A01 T02220178  RH  076%=      5-min Rain = 0
KBR1 170532Z 21009KT 22/18 A3004 RMK A01 T02220178  RH  076%=      5-min Rain = 0
KBR1 170533Z 21008KT 22/18 A3004 RMK A01 T02220179  RH  077%=      5-min Rain = 0
KBR1 170534Z 21009KT 22/18 A3004 RMK A01 T02220179  RH  076%=      5-min Rain = 0
KBR1 170535Z 21009KT 22/18 A3004 RMK A01 T02230179  RH  076%=      5-min Rain = 0
KBR1 170536Z 21008KT 22/18 A3004 RMK A01 T02230180  RH  076%=      5-min Rain = 0
KBR1 170537Z 22008KT 22/18 A3004 RMK A01 T02230180  RH  076%=      5-min Rain = 0
KBR1 170538Z 21007KT 22/18 A3004 RMK A01 T02240179  RH  076%=      5-min Rain = 0
KBR1 170539Z 21007KT 23/18 A3005 RMK A01 T02250181  RH  076%=      5-min Rain = 0
KBR1 170540Z 21007KT 23/18 A3005 RMK A01 T02250181  RH  076%=      5-min Rain = 0
KBR1 170541Z 21007KT 23/18 A3005 RMK A01 T02250181  RH  076%=      5-min Rain = 0
KBR1 170542Z 21007KT 23/18 A3005 RMK A01 T02260180  RH  075%=      5-min Rain = 0
KBR1 170543Z 21005KT 23/18 A3005 RMK A01 T02270180  RH  075%=      5-min Rain = 0
KBR1 170544Z 21006KT 23/18 A3005 RMK A01 T02270181  RH  075%=      5-min Rain = 0
KBR1 170545Z 22006KT 23/18 A3005 RMK A01 T02280182  RH  075%=      5-min Rain = 0
KBR1 170546Z 22007KT 23/18 A3005 RMK A01 T02280183  RH  076%=      5-min Rain = 0
KBR1 170547Z 23006KT 23/19 A3005 RMK A01 T02270185  RH  077%=      5-min Rain = 0
KBR1 170548Z 23006KT 23/19 A3005 RMK A01 T02260186  RH  078%=      5-min Rain = 0
KBR1 170549Z 22005KT 23/19 A3005 RMK A01 T02250185  RH  078%=      5-min Rain = 0
KBR1 170550Z 23005KT 23/19 A3005 RMK A01 T02250186  RH  079%=      5-min Rain = 0
KBR1 170551Z 23005KT 23/19 A3005 RMK A01 T02250186  RH  079%=      5-min Rain = 0
KBR1 170552Z 24005KT 23/19 A3005 RMK A01 T02250187  RH  079%=      5-min Rain = 0
KBR1 170553Z 24006KT 23/19 A3005 RMK A01 T02250187  RH  079%=      5-min Rain = 0
KBR1 170554Z 23006KT 23/18 A3005 RMK A01 T02250183  RH  077%=      5-min Rain = 0
KBR1 170555Z 21006KT 23/19 A3005 RMK A01 T02270185  RH  077%=      5-min Rain = 0
KBR1 170556Z 20006KT 23/19 A3005 RMK A01 T02280186  RH  077%=      5-min Rain = 0
KBR1 170557Z 20007KT 23/18 A3005 RMK A01 T02280183  RH  076%=      5-min Rain = 0
KBR1 170558Z 20007KT 23/18 A3005 RMK A01 T02290184  RH  076%=      5-min Rain = 0
KBR1 170559Z 19008KT 23/18 A3005 RMK A01 T02300182  RH  074%=      5-min Rain = 0
KBR1 170600Z 19008KT 23/18 A3005 RMK A01 T02320182  RH  074%=      5-min Rain = 0
KBR1 170601Z 18008KT 23/18 A3004 RMK A01 T02330181  RH  073%=      5-min Rain = 0
KBR1 170602Z 18007KT 23/18 A3004 RMK A01 T02330182  RH  073%=      5-min Rain = 0
KBR1 170603Z 18007KT 23/18 A3004 RMK A01 T02340181  RH  072%=      5-min Rain = 0
KBR1 170604Z 18007KT 24/18 A3004 RMK A01 T02350176  RH  070%=      5-min Rain = 0
KBR1 170605Z 18007KT 24/18 A3004 RMK A01 T02370177  RH  069%=      5-min Rain = 0
KBR1 170606Z 18007KT 24/18 A3005 RMK A01 T02380177  RH  069%=      5-min Rain = 0
KBR1 170607Z 18007KT 24/18 A3005 RMK A01 T02380178  RH  069%=      5-min Rain = 0
KBR1 170608Z 18006KT 24/18 A3005 RMK A01 T02380178  RH  069%=      5-min Rain = 0
KBR1 170609Z 18006KT 24/18 A3005 RMK A01 T02380179  RH  070%=      5-min Rain = 0
KBR1 170610Z 19004KT 24/18 A3005 RMK A01 T02380181  RH  070%=      5-min Rain = 0
KBR1 170611Z 27001KT 24/18 A3005 RMK A01 T02370182  RH  071%=      5-min Rain = 0
KBR1 170612Z 36005KT 24/19 A3005 RMK A01 T02360189  RH  075%=      5-min Rain = 0
KBR1 170613Z 36006KT 23/19 A3005 RMK A01 T02330193  RH  078%=      5-min Rain = 0
KBR1 170614Z 35005KT 23/19 A3005 RMK A01 T02310192  RH  079%=      5-min Rain = 0
KBR1 170615Z 34006KT 23/19 A3005 RMK A01 T02290193  RH  080%=      5-min Rain = 0
KBR1 170616Z 33005KT 23/19 A3006 RMK A01 T02280186  RH  077%=      5-min Rain = 0
KBR1 170617Z 32006KT 23/19 A3006 RMK A01 T02280185  RH  077%=      5-min Rain = 0
KBR1 170618Z 32005KT 23/18 A3006 RMK A01 T02280182  RH  075%=      5-min Rain = 0
KBR1 170619Z 31005KT 23/18 A3006 RMK A01 T02300179  RH  073%=      5-min Rain = 0
KBR1 170620Z 31007KT 23/18 A3005 RMK A01 T02310182  RH  074%=      5-min Rain = 0
KBR1 170621Z 32007KT 23/18 A3005 RMK A01 T02310183  RH  074%=      5-min Rain = 0
KBR1 170622Z 32007KT 23/18 A3005 RMK A01 T02310176  RH  071%=      5-min Rain = 0
KBR1 170623Z 32005KT 23/17 A3005 RMK A01 T02340173  RH  069%=      5-min Rain = 0
KBR1 170624Z 31006KT 24/17 A3005 RMK A01 T02360170  RH  066%=      5-min Rain = 0
KBR1 170625Z 30006KT 24/17 A3005 RMK A01 T02380169  RH  065%=      5-min Rain = 0
KBR1 170626Z 30005KT 24/17 A3005 RMK A01 T02400166  RH  063%=      5-min Rain = 0
KBR1 170627Z 30004KT 24/16 A3005 RMK A01 T02430164  RH  061%=      5-min Rain = 0
KBR1 170628Z 31005KT 25/17 A3005 RMK A01 T02450170  RH  063%=      5-min Rain = 0
KBR1 170629Z 31004KT 24/17 A3005 RMK A01 T02440173  RH  065%=      5-min Rain = 0
KBR1 170630Z 31004KT 24/17 A3005 RMK A01 T02420174  RH  066%=      5-min Rain = 0
KBR1 170631Z 30005KT 24/17 A3005 RMK A01 T02410174  RH  066%=      5-min Rain = 0
KBR1 170632Z 31005KT 24/17 A3005 RMK A01 T02410170  RH  065%=      5-min Rain = 0
KBR1 170633Z 30004KT 24/17 A3005 RMK A01 T02400173  RH  066%=      5-min Rain = 0
KBR1 170634Z 31005KT 24/18 A3005 RMK A01 T02400176  RH  067%=      5-min Rain = 0
KBR1 170635Z 31005KT 24/18 A3005 RMK A01 T02390178  RH  068%=      5-min Rain = 0
KBR1 170636Z 31005KT 24/18 A3005 RMK A01 T02390178  RH  069%=      5-min Rain = 0
KBR1 170637Z 31005KT 24/18 A3005 RMK A01 T02380180  RH  070%=      5-min Rain = 0
KBR1 170638Z 31005KT 24/18 A3005 RMK A01 T02380180  RH  070%=      5-min Rain = 0
KBR1 170639Z 31005KT 24/18 A3005 RMK A01 T02380180  RH  070%=      5-min Rain = 0
KBR1 170640Z 32004KT 24/18 A3005 RMK A01 T02370181  RH  071%=      5-min Rain = 0
KBR1 170641Z 32004KT 24/18 A3005 RMK A01 T02370177  RH  069%=      5-min Rain = 0
KBR1 170642Z 32003KT 24/18 A3005 RMK A01 T02370179  RH  070%=      5-min Rain = 0
KBR1 170643Z 32004KT 24/18 A3005 RMK A01 T02370180  RH  070%=      5-min Rain = 0
KBR1 170644Z 32004KT 24/18 A3004 RMK A01 T02370181  RH  071%=      5-min Rain = 0
KBR1 170645Z 33004KT 24/18 A3004 RMK A01 T02370181  RH  071%=      5-min Rain = 0
KBR1 170646Z 32004KT 24/18 A3004 RMK A01 T02370182  RH  071%=      5-min Rain = 0
KBR1 170647Z 32005KT 24/18 A3004 RMK A01 T02370181  RH  071%=      5-min Rain = 0
KBR1 170648Z 32005KT 24/18 A3004 RMK A01 T02370183  RH  072%=      5-min Rain = 0
KBR1 170649Z 31006KT 24/18 A3004 RMK A01 T02360183  RH  072%=      5-min Rain = 0
KBR1 170650Z 31006KT 24/18 A3004 RMK A01 T02360184  RH  072%=      5-min Rain = 0
KBR1 170651Z 32006KT 24/18 A3004 RMK A01 T02360181  RH  071%=      5-min Rain = 0
KBR1 170652Z 32006KT 24/18 A3004 RMK A01 T02360181  RH  071%=      5-min Rain = 0
KBR1 170653Z 31006KT 24/18 A3004 RMK A01 T02370181  RH  071%=      5-min Rain = 0
KBR1 170654Z 31006KT 24/18 A3004 RMK A01 T02370180  RH  071%=      5-min Rain = 0
KBR1 170655Z 31006KT 24/18 A3004 RMK A01 T02370180  RH  071%=      5-min Rain = 0
KBR1 170656Z 32005KT 24/18 A3004 RMK A01 T02370179  RH  070%=      5-min Rain = 0
KBR1 170657Z 32006KT 24/18 A3004 RMK A01 T02370180  RH  070%=      5-min Rain = 0
KBR1 170658Z 32006KT 24/18 A3004 RMK A01 T02370179  RH  070%=      5-min Rain = 0
KBR1 170659Z 32006KT 24/18 A3004 RMK A01 T02380176  RH  068%=      5-min Rain = 0
KBR1 170700Z 32007KT 24/18 A3004 RMK A01 T02380177  RH  069%=      5-min Rain = 0
KBR1 170701Z 32007KT 24/18 A3004 RMK A01 T02380176  RH  068%=      5-min Rain = 0
KBR1 170702Z 32007KT 24/18 A3004 RMK A01 T02390175  RH  068%=      5-min Rain = 0
KBR1 170703Z 32006KT 24/18 A3004 RMK A01 T02390176  RH  067%=      5-min Rain = 0
KBR1 170704Z 33006KT 24/18 A3004 RMK A01 T02400175  RH  067%=      5-min Rain = 0
KBR1 170705Z 33006KT 24/18 A3004 RMK A01 T02400175  RH  067%=      5-min Rain = 0
KBR1 170706Z 33006KT 24/18 A3004 RMK A01 T02410175  RH  067%=      5-min Rain = 0
KBR1 170707Z 33006KT 24/18 A3003 RMK A01 T02400176  RH  067%=      5-min Rain = 0
KBR1 170708Z 33005KT 24/18 A3003 RMK A01 T02400177  RH  068%=      5-min Rain = 0
KBR1 170709Z 33005KT 24/18 A3003 RMK A01 T02400177  RH  068%=      5-min Rain = 0
KBR1 170710Z 33006KT 24/18 A3003 RMK A01 T02400179  RH  068%=      5-min Rain = 0
KBR1 170711Z 33006KT 24/18 A3003 RMK A01 T02400178  RH  068%=      5-min Rain = 0
KBR1 170712Z 33007KT 24/18 A3003 RMK A01 T02400180  RH  069%=      5-min Rain = 0
KBR1 170713Z 33006KT 24/18 A3003 RMK A01 T02400177  RH  068%=      5-min Rain = 0
KBR1 170714Z 33007KT 24/18 A3003 RMK A01 T02400176  RH  067%=      5-min Rain = 0
KBR1 170715Z 33006KT 24/17 A3003 RMK A01 T02400174  RH  066%=      5-min Rain = 0
KBR1 170716Z 34006KT 24/17 A3003 RMK A01 T02410173  RH  066%=      5-min Rain = 0
KBR1 170717Z 34006KT 24/18 A3003 RMK A01 T02410175  RH  067%=      5-min Rain = 0
KBR1 170718Z 35005KT 24/18 A3003 RMK A01 T02410178  RH  068%=      5-min Rain = 0
KBR1 170719Z 35004KT 24/18 A3003 RMK A01 T02410179  RH  068%=      5-min Rain = 0
KBR1 170720Z 00003KT 24/18 A3004 RMK A01 T02400179  RH  069%=      5-min Rain = 0
KBR1 170721Z 01003KT 24/18 A3004 RMK A01 T02400180  RH  069%=      5-min Rain = 0
KBR1 170722Z 02003KT 24/18 A3004 RMK A01 T02390177  RH  068%=      5-min Rain = 0
KBR1 170723Z 03003KT 24/18 A3004 RMK A01 T02390176  RH  068%=      5-min Rain = 0
KBR1 170724Z 05003KT 24/18 A3004 RMK A01 T02400176  RH  068%=      5-min Rain = 0
KBR1 170725Z 06003KT 24/18 A3004 RMK A01 T02400180  RH  069%=      5-min Rain = 0
KBR1 170726Z 04002KT 24/18 A3004 RMK A01 T02390177  RH  068%=      5-min Rain = 0
KBR1 170727Z 04002KT 24/18 A3004 RMK A01 T02380176  RH  068%=      5-min Rain = 0
KBR1 170728Z 04002KT 24/17 A3004 RMK A01 T02380173  RH  067%=      5-min Rain = 0
KBR1 170729Z 02002KT 24/17 A3004 RMK A01 T02390174  RH  067%=      5-min Rain = 0
KBR1 170730Z 02002KT 24/17 A3004 RMK A01 T02400174  RH  067%=      5-min Rain = 0
KBR1 170731Z 02002KT 24/17 A3004 RMK A01 T02400173  RH  066%=      5-min Rain = 0
KBR1 170732Z 02002KT 24/17 A3004 RMK A01 T02400174  RH  066%=      5-min Rain = 0
KBR1 170733Z 02002KT 24/18 A3004 RMK A01 T02400175  RH  067%=      5-min Rain = 0
KBR1 170734Z 03002KT 24/17 A3004 RMK A01 T02400174  RH  067%=      5-min Rain = 0
KBR1 170735Z 03003KT 24/18 A3004 RMK A01 T02400175  RH  067%=      5-min Rain = 0
KBR1 170736Z 02003KT 24/18 A3003 RMK A01 T02400177  RH  068%=      5-min Rain = 0
KBR1 170737Z 01003KT 24/18 A3003 RMK A01 T02390179  RH  069%=      5-min Rain = 0
KBR1 170738Z 00003KT 24/18 A3003 RMK A01 T02390177  RH  068%=      5-min Rain = 0
KBR1 170739Z 36003KT 24/18 A3003 RMK A01 T02380176  RH  068%=      5-min Rain = 0
KBR1 170740Z 36003KT 24/18 A3003 RMK A01 T02380176  RH  068%=      5-min Rain = 0
KBR1 170741Z 00003KT 24/18 A3003 RMK A01 T02380175  RH  068%=      5-min Rain = 0
KBR1 170742Z 35003KT 24/18 A3003 RMK A01 T02380176  RH  068%=      5-min Rain = 0
KBR1 170743Z 35003KT 24/18 A3003 RMK A01 T02380178  RH  069%=      5-min Rain = 0
KBR1 170744Z 35003KT 24/18 A3003 RMK A01 T02380178  RH  069%=      5-min Rain = 0
KBR1 170745Z 34003KT 24/18 A3003 RMK A01 T02380178  RH  069%=      5-min Rain = 0
KBR1 170746Z 34003KT 24/18 A3003 RMK A01 T02380181  RH  070%=      5-min Rain = 0
KBR1 170747Z 34003KT 24/18 A3003 RMK A01 T02380177  RH  068%=      5-min Rain = 0
KBR1 170748Z 34003KT 24/18 A3003 RMK A01 T02390175  RH  067%=      5-min Rain = 0
KBR1 170749Z 34003KT 24/17 A3003 RMK A01 T02400174  RH  067%=      5-min Rain = 0
KBR1 170750Z 34003KT 24/18 A3003 RMK A01 T02410176  RH  067%=      5-min Rain = 0
KBR1 170751Z 34003KT 24/18 A3003 RMK A01 T02410177  RH  067%=      5-min Rain = 0
KBR1 170752Z 34003KT 24/18 A3003 RMK A01 T02410178  RH  068%=      5-min Rain = 0
KBR1 170753Z 34003KT 24/18 A3003 RMK A01 T02410179  RH  068%=      5-min Rain = 0
KBR1 170754Z 34003KT 24/18 A3003 RMK A01 T02410178  RH  068%=      5-min Rain = 0
KBR1 170755Z 33003KT 24/18 A3003 RMK A01 T02410177  RH  067%=      5-min Rain = 0
KBR1 170756Z 33003KT 24/18 A3002 RMK A01 T02410175  RH  066%=      5-min Rain = 0
KBR1 170757Z 33003KT 24/18 A3002 RMK A01 T02410176  RH  067%=      5-min Rain = 0
KBR1 170758Z 33003KT 24/17 A3002 RMK A01 T02420174  RH  066%=      5-min Rain = 0
KBR1 170759Z 32003KT 24/18 A3002 RMK A01 T02420176  RH  067%=      5-min Rain = 0
KBR1 170800Z 32003KT 24/18 A3002 RMK A01 T02420176  RH  066%=      5-min Rain = 0
KBR1 170801Z 33003KT 24/18 A3002 RMK A01 T02420175  RH  066%=      5-min Rain = 0
KBR1 170802Z 32002KT 24/18 A3002 RMK A01 T02420176  RH  066%=      5-min Rain = 0
KBR1 170803Z 32002KT 24/18 A3002 RMK A01 T02420176  RH  066%=      5-min Rain = 0
KBR1 170804Z 33002KT 24/17 A3002 RMK A01 T02420173  RH  065%=      5-min Rain = 0
KBR1 170805Z 33002KT 24/17 A3002 RMK A01 T02430173  RH  065%=      5-min Rain = 0
KBR1 170806Z 34003KT 24/17 A3002 RMK A01 T02430174  RH  065%=      5-min Rain = 0
KBR1 170807Z 34002KT 24/17 A3002 RMK A01 T02430172  RH  065%=      5-min Rain = 0
KBR1 170808Z 34002KT 24/17 A3002 RMK A01 T02430170  RH  064%=      5-min Rain = 0
KBR1 170809Z 35002KT 24/17 A3002 RMK A01 T02440169  RH  063%=      5-min Rain = 0
KBR1 170810Z 36002KT 24/17 A3002 RMK A01 T02440165  RH  061%=      5-min Rain = 0
KBR1 170811Z 00002KT 25/17 A3002 RMK A01 T02450166  RH  061%=      5-min Rain = 0
KBR1 170812Z 01002KT 25/17 A3002 RMK A01 T02460167  RH  061%=      5-min Rain = 0
KBR1 170813Z 01002KT 25/17 A3002 RMK A01 T02470170  RH  062%=      5-min Rain = 0
KBR1 170814Z 02002KT 25/18 A3002 RMK A01 T02470177  RH  065%=      5-min Rain = 0
KBR1 170815Z 02002KT 24/18 A3002 RMK A01 T02440182  RH  068%=      5-min Rain = 0
KBR1 170816Z 02002KT 24/18 A3002 RMK A01 T02420178  RH  068%=      5-min Rain = 0
KBR1 170817Z 02002KT 24/17 A3002 RMK A01 T02410171  RH  065%=      5-min Rain = 0
KBR1 170818Z 02002KT 24/17 A3002 RMK A01 T02410169  RH  064%=      5-min Rain = 0
KBR1 170819Z 02002KT 24/17 A3002 RMK A01 T02420170  RH  064%=      5-min Rain = 0
KBR1 170820Z 02002KT 24/17 A3002 RMK A01 T02430172  RH  065%=      5-min Rain = 0
KBR1 170821Z 03002KT 24/17 A3002 RMK A01 T02430173  RH  065%=      5-min Rain = 0
KBR1 170822Z 04003KT 24/18 A3002 RMK A01 T02430175  RH  066%=      5-min Rain = 0
KBR1 170823Z 05003KT 24/17 A3002 RMK A01 T02420170  RH  064%=      5-min Rain = 0
KBR1 170824Z 06003KT 24/17 A3002 RMK A01 T02420167  RH  063%=      5-min Rain = 0
KBR1 170825Z 06003KT 24/16 A3002 RMK A01 T02440164  RH  061%=      5-min Rain = 0
KBR1 170826Z 07003KT 25/16 A3002 RMK A01 T02460161  RH  059%=      5-min Rain = 0
KBR1 170827Z 07002KT 25/16 A3002 RMK A01 T02480155  RH  056%=      5-min Rain = 0
KBR1 170828Z 07003KT 25/15 A3002 RMK A01 T02520152  RH  054%=      5-min Rain = 0
KBR1 170829Z 08002KT 25/16 A3002 RMK A01 T02540158  RH  055%=      5-min Rain = 0
KBR1 170830Z 09003KT 25/16 A3002 RMK A01 T02540156  RH  055%=      5-min Rain = 0
KBR1 170831Z 09004KT 25/17 A3002 RMK A01 T02540165  RH  058%=      5-min Rain = 0
KBR1 170832Z 10003KT 25/17 A3002 RMK A01 T02510167  RH  060%=      5-min Rain = 0
KBR1 170833Z 10003KT 25/17 A3002 RMK A01 T02470170  RH  062%=      5-min Rain = 0
KBR1 170834Z 11003KT 24/17 A3002 RMK A01 T02440168  RH  063%=      5-min Rain = 0
KBR1 170835Z 11004KT 24/17 A3002 RMK A01 T02430165  RH  062%=      5-min Rain = 0
KBR1 170836Z 12004KT 24/16 A3002 RMK A01 T02430162  RH  060%=      5-min Rain = 0
KBR1 170837Z 11004KT 25/16 A3002 RMK A01 T02470163  RH  060%=      5-min Rain = 0
KBR1 170838Z 12004KT 25/16 A3002 RMK A01 T02470163  RH  060%=      5-min Rain = 0
KBR1 170839Z 12004KT 25/17 A3002 RMK A01 T02470170  RH  062%=      5-min Rain = 0
KBR1 170840Z 13005KT 24/17 A3002 RMK A01 T02440174  RH  065%=      5-min Rain = 0
KBR1 170841Z 10007KT 24/18 A3002 RMK A01 T02400176  RH  068%=      5-min Rain = 0
KBR1 170842Z 10007KT 24/17 A3002 RMK A01 T02380167  RH  065%=      5-min Rain = 0
KBR1 170843Z 11006KT 24/17 A3002 RMK A01 T02380165  RH  064%=      5-min Rain = 0
KBR1 170844Z 12006KT 24/17 A3002 RMK A01 T02380171  RH  066%=      5-min Rain = 0
KBR1 170845Z 10006KT 24/17 A3002 RMK A01 T02370168  RH  065%=      5-min Rain = 0
KBR1 170846Z 11006KT 24/17 A3002 RMK A01 T02370171  RH  067%=      5-min Rain = 0
KBR1 170847Z 10005KT 24/17 A3002 RMK A01 T02350171  RH  067%=      5-min Rain = 0
KBR1 170848Z 10005KT 23/17 A3002 RMK A01 T02340173  RH  068%=      5-min Rain = 0
KBR1 170849Z 11004KT 23/17 A3002 RMK A01 T02330171  RH  068%=      5-min Rain = 0
KBR1 170850Z 13003KT 23/16 A3002 RMK A01 T02340161  RH  064%=      5-min Rain = 0
KBR1 170851Z 14005KT 24/17 A3002 RMK A01 T02370165  RH  064%=      5-min Rain = 0
KBR1 170852Z 13004KT 24/16 A3002 RMK A01 T02380164  RH  063%=      5-min Rain = 0
KBR1 170853Z 13005KT 24/16 A3002 RMK A01 T02410159  RH  060%=      5-min Rain = 0
KBR1 170854Z 13004KT 25/16 A3002 RMK A01 T02450155  RH  057%=      5-min Rain = 0
KBR1 170855Z 14004KT 25/16 A3002 RMK A01 T02460157  RH  058%=      5-min Rain = 0
KBR1 170856Z 14004KT 25/16 A3001 RMK A01 T02470159  RH  058%=      5-min Rain = 0
KBR1 170857Z 13004KT 25/16 A3001 RMK A01 T02480160  RH  058%=      5-min Rain = 0
KBR1 170858Z 12003KT 25/17 A3001 RMK A01 T02460166  RH  061%=      5-min Rain = 0
KBR1 170859Z 12004KT 24/17 A3001 RMK A01 T02440166  RH  062%=      5-min Rain = 0
KBR1 170900Z 12004KT 24/16 A3001 RMK A01 T02420163  RH  061%=      5-min Rain = 0
KBR1 170901Z 12004KT 24/16 A3001 RMK A01 T02420162  RH  061%=      5-min Rain = 0
KBR1 170902Z 11005KT 24/16 A3001 RMK A01 T02410161  RH  061%=      5-min Rain = 0
KBR1 170903Z 12005KT 24/16 A3001 RMK A01 T02420162  RH  061%=      5-min Rain = 0
KBR1 170904Z 11005KT 24/16 A3001 RMK A01 T02420163  RH  061%=      5-min Rain = 0
KBR1 170905Z 11006KT 24/16 A3001 RMK A01 T02410159  RH  060%=      5-min Rain = 0
KBR1 170906Z 11006KT 24/16 A3001 RMK A01 T02440155  RH  058%=      5-min Rain = 0
KBR1 170907Z 11006KT 25/16 A3001 RMK A01 T02460157  RH  058%=      5-min Rain = 0
KBR1 170908Z 12006KT 25/16 A3001 RMK A01 T02460160  RH  059%=      5-min Rain = 0
KBR1 170909Z 12006KT 24/16 A3001 RMK A01 T02440163  RH  061%=      5-min Rain = 0
KBR1 170910Z 13006KT 24/17 A3002 RMK A01 T02420165  RH  062%=      5-min Rain = 0
KBR1 170911Z 12006KT 24/17 A3002 RMK A01 T02390165  RH  063%=      5-min Rain = 0
KBR1 170912Z 13005KT 24/17 A3002 RMK A01 T02370165  RH  064%=      5-min Rain = 0
KBR1 170913Z 13006KT 24/17 A3002 RMK A01 T02360166  RH  065%=      5-min Rain = 0
KBR1 170914Z 13005KT 24/17 A3002 RMK A01 T02350167  RH  066%=      5-min Rain = 0
KBR1 170915Z 13005KT 23/17 A3002 RMK A01 T02340165  RH  065%=      5-min Rain = 0
KBR1 170916Z 13005KT 23/17 A3002 RMK A01 T02340165  RH  065%=      5-min Rain = 0
KBR1 170917Z 13005KT 23/17 A3002 RMK A01 T02340167  RH  066%=      5-min Rain = 0
KBR1 170918Z 13005KT 23/17 A3002 RMK A01 T02320169  RH  067%=      5-min Rain = 0
KBR1 170919Z 13005KT 23/17 A3002 RMK A01 T02310166  RH  067%=      5-min Rain = 0
KBR1 170920Z 12006KT 23/17 A3002 RMK A01 T02310165  RH  066%=      5-min Rain = 0
KBR1 170921Z 12006KT 23/17 A3002 RMK A01 T02310165  RH  066%=      5-min Rain = 0
KBR1 170922Z 12005KT 23/16 A3002 RMK A01 T02310163  RH  066%=      5-min Rain = 0
KBR1 170923Z 12005KT 23/16 A3002 RMK A01 T02320164  RH  066%=      5-min Rain = 0
KBR1 170924Z 12004KT 23/16 A3002 RMK A01 T02320161  RH  065%=      5-min Rain = 0
KBR1 170925Z 12004KT 23/16 A3002 RMK A01 T02320161  RH  064%=      5-min Rain = 0
KBR1 170926Z 11004KT 23/16 A3002 RMK A01 T02330161  RH  064%=      5-min Rain = 0
KBR1 170927Z 11004KT 23/16 A3002 RMK A01 T02330160  RH  063%=      5-min Rain = 0
KBR1 170928Z 11004KT 23/16 A3002 RMK A01 T02330163  RH  064%=      5-min Rain = 0
KBR1 170929Z 11005KT 23/17 A3002 RMK A01 T02320167  RH  067%=      5-min Rain = 0
KBR1 170930Z 11005KT 23/17 A3002 RMK A01 T02300166  RH  067%=      5-min Rain = 0
KBR1 170931Z 12005KT 23/16 A3002 RMK A01 T02290164  RH  067%=      5-min Rain = 0
KBR1 170932Z 12005KT 23/16 A3002 RMK A01 T02290163  RH  066%=      5-min Rain = 0
KBR1 170933Z 12005KT 23/16 A3002 RMK A01 T02300160  RH  065%=      5-min Rain = 0
KBR1 170934Z 12005KT 23/16 A3002 RMK A01 T02300162  RH  065%=      5-min Rain = 0
KBR1 170935Z 13005KT 23/16 A3002 RMK A01 T02310161  RH  065%=      5-min Rain = 0
KBR1 170936Z 14005KT 23/16 A3001 RMK A01 T02310159  RH  064%=      5-min Rain = 0
KBR1 170937Z 14005KT 23/16 A3001 RMK A01 T02330159  RH  063%=      5-min Rain = 0
KBR1 170938Z 14005KT 23/16 A3001 RMK A01 T02340157  RH  062%=      5-min Rain = 0
KBR1 170939Z 14005KT 24/16 A3001 RMK A01 T02360157  RH  061%=      5-min Rain = 0
KBR1 170940Z 14006KT 24/16 A3001 RMK A01 T02360157  RH  061%=      5-min Rain = 0
KBR1 170941Z 14007KT 24/16 A3001 RMK A01 T02360159  RH  062%=      5-min Rain = 0
KBR1 170942Z 14006KT 24/16 A3001 RMK A01 T02360159  RH  062%=      5-min Rain = 0
KBR1 170943Z 14006KT 24/16 A3001 RMK A01 T02350160  RH  063%=      5-min Rain = 0
KBR1 170944Z 14006KT 23/16 A3001 RMK A01 T02340162  RH  064%=      5-min Rain = 0
KBR1 170945Z 14006KT 23/16 A3001 RMK A01 T02330161  RH  064%=      5-min Rain = 0
KBR1 170946Z 14006KT 23/16 A3001 RMK A01 T02330160  RH  064%=      5-min Rain = 0
KBR1 170947Z 14006KT 23/16 A3001 RMK A01 T02320160  RH  064%=      5-min Rain = 0
KBR1 170948Z 14006KT 23/16 A3001 RMK A01 T02320161  RH  064%=      5-min Rain = 0
KBR1 170949Z 14006KT 23/16 A3001 RMK A01 T02310160  RH  064%=      5-min Rain = 0
KBR1 170950Z 14006KT 23/16 A3001 RMK A01 T02310159  RH  064%=      5-min Rain = 0
KBR1 170951Z 15006KT 23/16 A3001 RMK A01 T02320159  RH  064%=      5-min Rain = 0
KBR1 170952Z 15006KT 23/16 A3001 RMK A01 T02310159  RH  064%=      5-min Rain = 0
KBR1 170953Z 15007KT 23/16 A3001 RMK A01 T02320160  RH  064%=      5-min Rain = 0
KBR1 170954Z 15007KT 23/16 A3001 RMK A01 T02320160  RH  064%=      5-min Rain = 0
KBR1 170955Z 15007KT 23/16 A3001 RMK A01 T02320160  RH  064%=      5-min Rain = 0
KBR1 170956Z 14007KT 23/16 A3001 RMK A01 T02320161  RH  064%=      5-min Rain = 0
KBR1 170957Z 14007KT 23/16 A3001 RMK A01 T02310163  RH  065%=      5-min Rain = 0
KBR1 170958Z 14007KT 23/16 A3001 RMK A01 T02290163  RH  066%=      5-min Rain = 0
KBR1 170959Z 15007KT 23/16 A3001 RMK A01 T02280162  RH  066%=      5-min Rain = 0
KBR1 171000Z 15007KT 23/16 A3001 RMK A01 T02280162  RH  066%=      5-min Rain = 0
KBR1 171001Z 15007KT 23/16 A3001 RMK A01 T02280162  RH  066%=      5-min Rain = 0
KBR1 171002Z 15007KT 23/16 A3001 RMK A01 T02280163  RH  067%=      5-min Rain = 0
KBR1 171003Z 15007KT 23/16 A3001 RMK A01 T02270164  RH  067%=      5-min Rain = 0
KBR1 171004Z 15007KT 23/16 A3001 RMK A01 T02260164  RH  068%=      5-min Rain = 0
KBR1 171005Z 15007KT 23/16 A3001 RMK A01 T02260163  RH  068%=      5-min Rain = 0
KBR1 171006Z 15008KT 23/16 A3001 RMK A01 T02250162  RH  067%=      5-min Rain = 0
KBR1 171007Z 15008KT 23/16 A3001 RMK A01 T02260162  RH  067%=      5-min Rain = 0
KBR1 171008Z 16007KT 23/16 A3001 RMK A01 T02260162  RH  067%=      5-min Rain = 0
KBR1 171009Z 16007KT 23/16 A3001 RMK A01 T02260162  RH  067%=      5-min Rain = 0
KBR1 171010Z 16008KT 23/16 A3001 RMK A01 T02260162  RH  067%=      5-min Rain = 0
KBR1 171011Z 16008KT 23/16 A3001 RMK A01 T02260161  RH  067%=      5-min Rain = 0
KBR1 171012Z 16008KT 23/16 A3001 RMK A01 T02260161  RH  067%=      5-min Rain = 0
KBR1 171013Z 16008KT 23/16 A3001 RMK A01 T02260161  RH  067%=      5-min Rain = 0
KBR1 171014Z 17008KT 23/16 A3001 RMK A01 T02260162  RH  067%=      5-min Rain = 0
KBR1 171015Z 17008KT 23/16 A3001 RMK A01 T02270163  RH  067%=      5-min Rain = 0
KBR1 171016Z 17008KT 23/16 A3001 RMK A01 T02270164  RH  067%=      5-min Rain = 0
KBR1 171017Z 17007KT 23/16 A3001 RMK A01 T02270164  RH  068%=      5-min Rain = 0
KBR1 171018Z 18006KT 23/17 A3001 RMK A01 T02260166  RH  069%=      5-min Rain = 0
KBR1 171019Z 18006KT 23/17 A3001 RMK A01 T02250167  RH  069%=      5-min Rain = 0
KBR1 171020Z 18006KT 22/17 A3001 RMK A01 T02240167  RH  070%=      5-min Rain = 0
KBR1 171021Z 18006KT 22/17 A3001 RMK A01 T02230167  RH  070%=      5-min Rain = 0
KBR1 171022Z 18006KT 22/17 A3001 RMK A01 T02220166  RH  070%=      5-min Rain = 0
KBR1 171023Z 18006KT 22/17 A3001 RMK A01 T02220166  RH  071%=      5-min Rain = 0
KBR1 171024Z 18007KT 22/17 A3001 RMK A01 T02220166  RH  071%=      5-min Rain = 0
KBR1 171025Z 18008KT 22/17 A3001 RMK A01 T02220166  RH  070%=      5-min Rain = 0
KBR1 171026Z 18008KT 22/16 A3001 RMK A01 T02220164  RH  070%=      5-min Rain = 0
KBR1 171027Z 18008KT 22/16 A3001 RMK A01 T02230164  RH  069%=      5-min Rain = 0
KBR1 171028Z 18008KT 22/16 A3001 RMK A01 T02240164  RH  069%=      5-min Rain = 0
KBR1 171029Z 18008KT 22/16 A3001 RMK A01 T02240164  RH  069%=      5-min Rain = 0
KBR1 171030Z 18008KT 22/17 A3001 RMK A01 T02240165  RH  069%=      5-min Rain = 0
KBR1 171031Z 18008KT 22/16 A3001 RMK A01 T02240164  RH  069%=      5-min Rain = 0
KBR1 171032Z 18008KT 22/16 A3001 RMK A01 T02240164  RH  069%=      5-min Rain = 0
KBR1 171033Z 18008KT 22/16 A3001 RMK A01 T02230164  RH  069%=      5-min Rain = 0
KBR1 171034Z 18008KT 22/16 A3001 RMK A01 T02230164  RH  069%=      5-min Rain = 0
KBR1 171035Z 18008KT 22/16 A3001 RMK A01 T02230163  RH  069%=      5-min Rain = 0
KBR1 171036Z 18008KT 22/16 A3001 RMK A01 T02230163  RH  069%=      5-min Rain = 0
KBR1 171037Z 18008KT 22/16 A3001 RMK A01 T02230164  RH  069%=      5-min Rain = 0
KBR1 171038Z 18008KT 22/17 A3001 RMK A01 T02230165  RH  070%=      5-min Rain = 0
KBR1 171039Z 19007KT 22/16 A3001 RMK A01 T02220164  RH  070%=      5-min Rain = 0
KBR1 171040Z 19008KT 22/17 A3001 RMK A01 T02220165  RH  070%=      5-min Rain = 0
KBR1 171041Z 19008KT 22/16 A3001 RMK A01 T02210164  RH  070%=      5-min Rain = 0
KBR1 171042Z 19008KT 22/16 A3001 RMK A01 T02210163  RH  070%=      5-min Rain = 0
KBR1 171043Z 19008KT 22/16 A3001 RMK A01 T02210162  RH  069%=      5-min Rain = 0
KBR1 171044Z 19008KT 22/16 A3001 RMK A01 T02210164  RH  070%=      5-min Rain = 0
KBR1 171045Z 19008KT 22/16 A3001 RMK A01 T02200164  RH  070%=      5-min Rain = 0
KBR1 171046Z 18008KT 22/16 A3001 RMK A01 T02200163  RH  070%=      5-min Rain = 0
KBR1 171047Z 18008KT 22/16 A3001 RMK A01 T02190164  RH  071%=      5-min Rain = 0
KBR1 171048Z 18008KT 22/17 A3001 RMK A01 T02190165  RH  071%=      5-min Rain = 0
KBR1 171049Z 18008KT 22/16 A3001 RMK A01 T02180164  RH  071%=      5-min Rain = 0
KBR1 171050Z 18008KT 22/17 A3001 RMK A01 T02180165  RH  072%=      5-min Rain = 0
KBR1 171051Z 18008KT 22/17 A3001 RMK A01 T02170166  RH  073%=      5-min Rain = 0
KBR1 171052Z 18008KT 22/17 A3001 RMK A01 T02160165  RH  073%=      5-min Rain = 0
KBR1 171053Z 17008KT 22/17 A3001 RMK A01 T02160165  RH  073%=      5-min Rain = 0
KBR1 171054Z 17009KT 22/17 A3001 RMK A01 T02160166  RH  073%=      5-min Rain = 0
KBR1 171055Z 17009KT 22/17 A3001 RMK A01 T02150166  RH  074%=      5-min Rain = 0
KBR1 171056Z 17009KT 21/17 A3001 RMK A01 T02140165  RH  074%=      5-min Rain = 0
KBR1 171057Z 17009KT 21/17 A3001 RMK A01 T02140166  RH  074%=      5-min Rain = 0
KBR1 171058Z 17008KT 21/17 A3001 RMK A01 T02140165  RH  074%=      5-min Rain = 0
KBR1 171059Z 18008KT 22/17 A3001 RMK A01 T02150165  RH  073%=      5-min Rain = 0
KBR1 171100Z 18008KT 22/17 A3001 RMK A01 T02150165  RH  073%=      5-min Rain = 0
KBR1 171101Z 18008KT 22/17 A3001 RMK A01 T02150165  RH  073%=      5-min Rain = 0
KBR1 171102Z 18009KT 22/17 A3001 RMK A01 T02150165  RH  073%=      5-min Rain = 0
KBR1 171103Z 18009KT 22/16 A3001 RMK A01 T02150164  RH  073%=      5-min Rain = 0
KBR1 171104Z 18008KT 22/16 A3001 RMK A01 T02160164  RH  072%=      5-min Rain = 0
KBR1 171105Z 17008KT 22/17 A3001 RMK A01 T02160165  RH  073%=      5-min Rain = 0
KBR1 171106Z 17009KT 22/17 A3001 RMK A01 T02150165  RH  073%=      5-min Rain = 0
KBR1 171107Z 17009KT 22/17 A3001 RMK A01 T02150165  RH  073%=      5-min Rain = 0
KBR1 171108Z 17009KT 21/17 A3001 RMK A01 T02140165  RH  073%=      5-min Rain = 0
KBR1 171109Z 17009KT 21/16 A3001 RMK A01 T02140164  RH  073%=      5-min Rain = 0
KBR1 171110Z 17009KT 21/16 A3001 RMK A01 T02140163  RH  073%=      5-min Rain = 0
KBR1 171111Z 17009KT 21/16 A3001 RMK A01 T02140162  RH  072%=      5-min Rain = 0
KBR1 171112Z 17009KT 21/16 A3001 RMK A01 T02140163  RH  073%=      5-min Rain = 0
KBR1 171113Z 17008KT 21/16 A3001 RMK A01 T02140164  RH  073%=      5-min Rain = 0
KBR1 171114Z 17008KT 21/16 A3001 RMK A01 T02140163  RH  073%=      5-min Rain = 0
KBR1 171115Z 18009KT 21/16 A3001 RMK A01 T02130162  RH  072%=      5-min Rain = 0
KBR1 171116Z 18008KT 21/16 A3001 RMK A01 T02130162  RH  073%=      5-min Rain = 0
KBR1 171117Z 18008KT 21/16 A3001 RMK A01 T02130162  RH  072%=      5-min Rain = 0
KBR1 171118Z 18008KT 21/16 A3001 RMK A01 T02130162  RH  073%=      5-min Rain = 0
KBR1 171119Z 18009KT 21/16 A3001 RMK A01 T02130161  RH  072%=      5-min Rain = 0
KBR1 171120Z 18009KT 21/16 A3001 RMK A01 T02130161  RH  072%=      5-min Rain = 0
KBR1 171121Z 18009KT 21/16 A3001 RMK A01 T02130162  RH  073%=      5-min Rain = 0
KBR1 171122Z 18009KT 21/16 A3001 RMK A01 T02120162  RH  073%=      5-min Rain = 0
KBR1 171123Z 17008KT 21/16 A3001 RMK A01 T02110163  RH  074%=      5-min Rain = 0
KBR1 171124Z 18008KT 21/16 A3001 RMK A01 T02110162  RH  074%=      5-min Rain = 0
KBR1 171125Z 17008KT 21/16 A3001 RMK A01 T02110163  RH  074%=      5-min Rain = 0
KBR1 171126Z 17008KT 21/16 A3002 RMK A01 T02100163  RH  075%=      5-min Rain = 0
KBR1 171127Z 17009KT 21/16 A3002 RMK A01 T02090163  RH  075%=      5-min Rain = 0
KBR1 171128Z 17009KT 21/16 A3002 RMK A01 T02090163  RH  075%=      5-min Rain = 0
KBR1 171129Z 17008KT 21/16 A3002 RMK A01 T02090163  RH  075%=      5-min Rain = 0
KBR1 171130Z 17009KT 21/16 A3002 RMK A01 T02080163  RH  075%=      5-min Rain = 0
KBR1 171131Z 17009KT 21/16 A3002 RMK A01 T02080163  RH  075%=      5-min Rain = 0
KBR1 171132Z 17009KT 21/16 A3002 RMK A01 T02080162  RH  075%=      5-min Rain = 0
KBR1 171133Z 17009KT 21/16 A3002 RMK A01 T02080162  RH  075%=      5-min Rain = 0
KBR1 171134Z 17009KT 21/16 A3002 RMK A01 T02080162  RH  075%=      5-min Rain = 0
KBR1 171135Z 17009KT 21/16 A3002 RMK A01 T02080161  RH  075%=      5-min Rain = 0
KBR1 171136Z 17009KT 21/16 A3002 RMK A01 T02080161  RH  074%=      5-min Rain = 0
KBR1 171137Z 17009KT 21/16 A3002 RMK A01 T02080161  RH  075%=      5-min Rain = 0
KBR1 171138Z 17008KT 21/16 A3002 RMK A01 T02080161  RH  075%=      5-min Rain = 0
KBR1 171139Z 17008KT 21/16 A3002 RMK A01 T02080161  RH  075%=      5-min Rain = 0
KBR1 171140Z 17008KT 21/16 A3002 RMK A01 T02070161  RH  075%=      5-min Rain = 0
KBR1 171141Z 17008KT 21/16 A3002 RMK A01 T02070161  RH  075%=      5-min Rain = 0
KBR1 171142Z 17008KT 21/16 A3002 RMK A01 T02060161  RH  075%=      5-min Rain = 0
KBR1 171143Z 17007KT 21/16 A3002 RMK A01 T02060160  RH  075%=      5-min Rain = 0
KBR1 171144Z 17008KT 21/16 A3002 RMK A01 T02060161  RH  075%=      5-min Rain = 0
KBR1 171145Z 17008KT 21/16 A3002 RMK A01 T02060160  RH  075%=      5-min Rain = 0
KBR1 171146Z 18008KT 21/16 A3002 RMK A01 T02060160  RH  075%=      5-min Rain = 0
KBR1 171147Z 18008KT 21/16 A3002 RMK A01 T02060160  RH  075%=      5-min Rain = 0
KBR1 171148Z 18008KT 21/16 A3002 RMK A01 T02050159  RH  075%=      5-min Rain = 0
KBR1 171149Z 18008KT 21/16 A3001 RMK A01 T02060159  RH  075%=      5-min Rain = 0
KBR1 171150Z 18008KT 21/16 A3001 RMK A01 T02060159  RH  075%=      5-min Rain = 0
KBR1 171151Z 18008KT 21/16 A3001 RMK A01 T02070159  RH  074%=      5-min Rain = 0
KBR1 171152Z 18007KT 21/16 A3001 RMK A01 T02070159  RH  074%=      5-min Rain = 0
KBR1 171153Z 18007KT 21/16 A3002 RMK A01 T02070160  RH  074%=      5-min Rain = 0
KBR1 171154Z 18007KT 21/16 A3002 RMK A01 T02060160  RH  075%=      5-min Rain = 0
KBR1 171155Z 18007KT 21/16 A3002 RMK A01 T02060160  RH  075%=      5-min Rain = 0
KBR1 171156Z 18007KT 21/16 A3002 RMK A01 T02060160  RH  075%=      5-min Rain = 0
KBR1 171157Z 18007KT 21/16 A3002 RMK A01 T02060160  RH  075%=      5-min Rain = 0
KBR1 171158Z 18007KT 21/16 A3002 RMK A01 T02050159  RH  075%=      5-min Rain = 0
KBR1 171159Z 19007KT 21/16 A3002 RMK A01 T02050160  RH  075%=      5-min Rain = 0
KBR1 171200Z 19006KT 21/16 A3002 RMK A01 T02050160  RH  075%=      5-min Rain = 0
KBR1 171201Z 19007KT 21/16 A3002 RMK A01 T02050160  RH  075%=      5-min Rain = 0
KBR1 171202Z 20007KT 21/16 A3002 RMK A01 T02050160  RH  075%=      5-min Rain = 0
KBR1 171203Z 20006KT 21/16 A3002 RMK A01 T02050160  RH  076%=      5-min Rain = 0
KBR1 171204Z 20006KT 21/16 A3002 RMK A01 T02050160  RH  075%=      5-min Rain = 0
KBR1 171205Z 20006KT 21/16 A3002 RMK A01 T02050160  RH  076%=      5-min Rain = 0
KBR1 171206Z 21006KT 20/16 A3002 RMK A01 T02040160  RH  076%=      5-min Rain = 0
KBR1 171207Z 21006KT 20/16 A3002 RMK A01 T02040160  RH  076%=      5-min Rain = 0
KBR1 171208Z 21006KT 20/16 A3002 RMK A01 T02040160  RH  076%=      5-min Rain = 0
KBR1 171209Z 21006KT 20/16 A3002 RMK A01 T02040161  RH  076%=      5-min Rain = 0
KBR1 171210Z 22005KT 20/16 A3002 RMK A01 T02040161  RH  077%=      5-min Rain = 0
KBR1 171211Z 22005KT 20/16 A3002 RMK A01 T02030163  RH  078%=      5-min Rain = 0
KBR1 171212Z 21005KT 20/16 A3002 RMK A01 T02010163  RH  079%=      5-min Rain = 0
KBR1 171213Z 21006KT 20/16 A3002 RMK A01 T02010163  RH  079%=      5-min Rain = 0
KBR1 171214Z 21006KT 20/16 A3002 RMK A01 T02000164  RH  079%=      5-min Rain = 0
KBR1 171215Z 21005KT 20/16 A3002 RMK A01 T02000164  RH  080%=      5-min Rain = 0
KBR1 171216Z 21005KT 20/17 A3002 RMK A01 T02000165  RH  080%=      5-min Rain = 0
KBR1 171217Z 21005KT 20/17 A3002 RMK A01 T02000165  RH  080%=      5-min Rain = 0
KBR1 171218Z 22005KT 20/17 A3002 RMK A01 T02000166  RH  080%=      5-min Rain = 0
KBR1 171219Z 22005KT 20/17 A3002 RMK A01 T02000166  RH  081%=      5-min Rain = 0
KBR1 171220Z 22005KT 20/17 A3002 RMK A01 T02000167  RH  081%=      5-min Rain = 0
KBR1 171221Z 22005KT 20/17 A3002 RMK A01 T02000167  RH  081%=      5-min Rain = 0
KBR1 171222Z 21005KT 20/17 A3002 RMK A01 T02000168  RH  082%=      5-min Rain = 0
KBR1 171223Z 21005KT 20/17 A3002 RMK A01 T02000168  RH  082%=      5-min Rain = 0
KBR1 171224Z 21006KT 20/17 A3002 RMK A01 T02000168  RH  082%=      5-min Rain = 0
KBR1 171225Z 21006KT 20/17 A3002 RMK A01 T02000167  RH  081%=      5-min Rain = 0
KBR1 171226Z 21005KT 20/17 A3002 RMK A01 T02010167  RH  081%=      5-min Rain = 0
KBR1 171227Z 21006KT 20/17 A3002 RMK A01 T02020167  RH  080%=      5-min Rain = 0
KBR1 171228Z 21006KT 20/17 A3002 RMK A01 T02030166  RH  080%=      5-min Rain = 0
KBR1 171229Z 21006KT 21/17 A3002 RMK A01 T02050165  RH  078%=      5-min Rain = 0
KBR1 171230Z 22007KT 21/17 A3002 RMK A01 T02070165  RH  077%=      5-min Rain = 0
KBR1 171231Z 21006KT 21/17 A3002 RMK A01 T02090165  RH  076%=      5-min Rain = 0
KBR1 171232Z 21007KT 21/17 A3002 RMK A01 T02100165  RH  076%=      5-min Rain = 0
KBR1 171233Z 21007KT 21/16 A3002 RMK A01 T02110164  RH  075%=      5-min Rain = 0
KBR1 171234Z 21007KT 21/17 A3003 RMK A01 T02120165  RH  074%=      5-min Rain = 0
KBR1 171235Z 21007KT 21/17 A3003 RMK A01 T02120165  RH  074%=      5-min Rain = 0
KBR1 171236Z 21007KT 21/16 A3003 RMK A01 T02130164  RH  074%=      5-min Rain = 0
KBR1 171237Z 21007KT 21/16 A3003 RMK A01 T02140164  RH  073%=      5-min Rain = 0
KBR1 171238Z 21007KT 21/16 A3003 RMK A01 T02140163  RH  073%=      5-min Rain = 0
KBR1 171239Z 21007KT 22/16 A3003 RMK A01 T02150164  RH  073%=      5-min Rain = 0
KBR1 171240Z 21007KT 22/16 A3003 RMK A01 T02150163  RH  072%=      5-min Rain = 0
KBR1 171241Z 21008KT 22/16 A3003 RMK A01 T02160164  RH  072%=      5-min Rain = 0
KBR1 171242Z 21007KT 22/16 A3003 RMK A01 T02160164  RH  072%=      5-min Rain = 0
KBR1 171243Z 21008KT 22/16 A3002 RMK A01 T02160163  RH  072%=      5-min Rain = 0
KBR1 171244Z 20008KT 22/16 A3003 RMK A01 T02160164  RH  072%=      5-min Rain = 0
KBR1 171245Z 21008KT 22/16 A3003 RMK A01 T02170163  RH  072%=      5-min Rain = 0
KBR1 171246Z 20008KT 22/16 A3002 RMK A01 T02170163  RH  071%=      5-min Rain = 0
KBR1 171247Z 20008KT 22/16 A3002 RMK A01 T02170162  RH  071%=      5-min Rain = 0
KBR1 171248Z 20007KT 22/16 A3002 RMK A01 T02180163  RH  071%=      5-min Rain = 0
KBR1 171249Z 20007KT 22/16 A3002 RMK A01 T02180162  RH  071%=      5-min Rain = 0
KBR1 171250Z 20008KT 22/16 A3002 RMK A01 T02180163  RH  071%=      5-min Rain = 0
KBR1 171251Z 21007KT 22/16 A3002 RMK A01 T02190164  RH  071%=      5-min Rain = 0
KBR1 171252Z 20008KT 22/16 A3003 RMK A01 T02190164  RH  071%=      5-min Rain = 0
KBR1 171253Z 20008KT 22/16 A3003 RMK A01 T02190163  RH  070%=      5-min Rain = 0
KBR1 171254Z 20008KT 22/16 A3003 RMK A01 T02200162  RH  070%=      5-min Rain = 0
KBR1 171255Z 20008KT 22/16 A3003 RMK A01 T02210162  RH  070%=      5-min Rain = 0
KBR1 171256Z 20009KT 22/16 A3003 RMK A01 T02210162  RH  069%=      5-min Rain = 0
KBR1 171257Z 20009KT 22/16 A3003 RMK A01 T02220162  RH  069%=      5-min Rain = 0
KBR1 171258Z 20008KT 22/16 A3003 RMK A01 T02230163  RH  069%=      5-min Rain = 0
KBR1 171259Z 20008KT 22/16 A3003 RMK A01 T02240163  RH  068%=      5-min Rain = 0
KBR1 171300Z 20009KT 22/16 A3003 RMK A01 T02240163  RH  068%=      5-min Rain = 0
KBR1 171301Z 20009KT 23/16 A3003 RMK A01 T02250161  RH  067%=      5-min Rain = 0
KBR1 171302Z 20009KT 23/16 A3003 RMK A01 T02260162  RH  067%=      5-min Rain = 0
KBR1 171303Z 20010KT 23/16 A3003 RMK A01 T02260162  RH  067%=      5-min Rain = 0
KBR1 171304Z 20010KT 23/16 A3003 RMK A01 T02270161  RH  066%=      5-min Rain = 0
KBR1 171305Z 20008KT 23/16 A3003 RMK A01 T02270161  RH  066%=      5-min Rain = 0
KBR1 171306Z 20010KT 23/16 A3003 RMK A01 T02280161  RH  066%=      5-min Rain = 0
KBR1 171307Z 20009KT 23/16 A3003 RMK A01 T02280162  RH  066%=      5-min Rain = 0
KBR1 171308Z 20010KT 23/16 A3003 RMK A01 T02290160  RH  065%=      5-min Rain = 0
KBR1 171309Z 20010KT 23/16 A3003 RMK A01 T02290161  RH  065%=      5-min Rain = 0
KBR1 171310Z 20011KT 23/16 A3003 RMK A01 T02300161  RH  065%=      5-min Rain = 0
KBR1 171311Z 20010KT 23/16 A3003 RMK A01 T02300160  RH  065%=      5-min Rain = 0
KBR1 171312Z 20011KT 23/16 A3003 RMK A01 T02310160  RH  064%=      5-min Rain = 0
KBR1 171313Z 20009KT 23/16 A3003 RMK A01 T02310162  RH  065%=      5-min Rain = 0
KBR1 171314Z 20010KT 23/16 A3003 RMK A01 T02310161  RH  065%=      5-min Rain = 0
KBR1 171315Z 20009KT 23/16 A3003 RMK A01 T02320162  RH  065%=      5-min Rain = 0
KBR1 171316Z 20009KT 23/16 A3003 RMK A01 T02320163  RH  065%=      5-min Rain = 0
KBR1 171317Z 20011KT 23/16 A3003 RMK A01 T02330162  RH  064%=      5-min Rain = 0
KBR1 171318Z 20010KT 23/16 A3003 RMK A01 T02340161  RH  063%=      5-min Rain = 0
KBR1 171319Z 20010KT 24/16 A3003 RMK A01 T02350163  RH  064%=      5-min Rain = 0
KBR1 171320Z 20011KT 24/16 A3003 RMK A01 T02360160  RH  062%=      5-min Rain = 0
KBR1 171321Z 20010KT 24/16 A3003 RMK A01 T02370161  RH  062%=      5-min Rain = 0
KBR1 171322Z 20010KT 24/16 A3003 RMK A01 T02380162  RH  062%=      5-min Rain = 0
KBR1 171323Z 20010KT 24/16 A3003 RMK A01 T02390163  RH  062%=      5-min Rain = 0
KBR1 171324Z 20010KT 24/16 A3003 RMK A01 T02400163  RH  062%=      5-min Rain = 0
KBR1 171325Z 20011KT 24/16 A3003 RMK A01 T02400161  RH  061%=      5-min Rain = 0
KBR1 171326Z 20011KT 24/16 A3003 RMK A01 T02410161  RH  061%=      5-min Rain = 0
KBR1 171327Z 20011KT 24/16 A3003 RMK A01 T02420161  RH  061%=      5-min Rain = 0
KBR1 171328Z 20010KT 24/16 A3003 RMK A01 T02430161  RH  060%=      5-min Rain = 0
KBR1 171329Z 19011KT 24/16 A3003 RMK A01 T02440163  RH  061%=      5-min Rain = 0
KBR1 171330Z 20012KT 25/16 A3003 RMK A01 T02450161  RH  059%=      5-min Rain = 0
KBR1 171331Z 20012KT 25/16 A3003 RMK A01 T02460161  RH  059%=      5-min Rain = 0
KBR1 171332Z 20012KT 25/16 A3003 RMK A01 T02470160  RH  059%=      5-min Rain = 0
KBR1 171333Z 19011KT 25/16 A3003 RMK A01 T02470161  RH  059%=      5-min Rain = 0
KBR1 171334Z 20012KT 25/16 A3003 RMK A01 T02470162  RH  059%=      5-min Rain = 0
KBR1 171335Z 19012KT 25/16 A3003 RMK A01 T02480160  RH  058%=      5-min Rain = 0
KBR1 171336Z 19012KT 25/16 A3003 RMK A01 T02480161  RH  058%=      5-min Rain = 0
KBR1 171337Z 20012KT 25/16 A3003 RMK A01 T02490160  RH  058%=      5-min Rain = 0
KBR1 171338Z 20014KT 25/16 A3003 RMK A01 T02490158  RH  057%=      5-min Rain = 0
KBR1 171339Z 20012KT 25/16 A3003 RMK A01 T02490160  RH  058%=      5-min Rain = 0
KBR1 171340Z 20012KT 25/16 A3003 RMK A01 T02500161  RH  058%=      5-min Rain = 0
KBR1 171341Z 20015KT 25/16 A3003 RMK A01 T02510160  RH  057%=      5-min Rain = 0
KBR1 171342Z 20014KT 25/16 A3003 RMK A01 T02510159  RH  056%=      5-min Rain = 0
KBR1 171343Z 20015KT 25/16 A3003 RMK A01 T02520158  RH  056%=      5-min Rain = 0
KBR1 171344Z 20013KT 25/16 A3003 RMK A01 T02520160  RH  057%=      5-min Rain = 0
KBR1 171345Z 21013KT 25/16 A3003 RMK A01 T02530162  RH  057%=      5-min Rain = 0
KBR1 171346Z 20013KT 25/16 A3003 RMK A01 T02540160  RH  056%=      5-min Rain = 0
KBR1 171347Z 20013KT 26/16 A3003 RMK A01 T02550161  RH  056%=      5-min Rain = 0
KBR1 171348Z 21017KT 26/16 A3003 RMK A01 T02550159  RH  055%=      5-min Rain = 0
KBR1 171349Z 21014KT 26/16 A3003 RMK A01 T02550158  RH  055%=      5-min Rain = 0
KBR1 171350Z 21015KT 26/16 A3003 RMK A01 T02550160  RH  056%=      5-min Rain = 0
KBR1 171351Z 21016KT 26/16 A3003 RMK A01 T02560160  RH  055%=      5-min Rain = 0
KBR1 171352Z 21015KT 26/16 A3003 RMK A01 T02560159  RH  055%=      5-min Rain = 0
KBR1 171353Z 21012KT 26/16 A3004 RMK A01 T02570162  RH  056%=      5-min Rain = 0
KBR1 171354Z 21015KT 26/16 A3003 RMK A01 T02570163  RH  056%=      5-min Rain = 0
KBR1 171355Z 21016KT 26/16 A3003 RMK A01 T02580159  RH  054%=      5-min Rain = 0
KBR1 171356Z 21013KT 26/16 A3004 RMK A01 T02580162  RH  055%=      5-min Rain = 0
KBR1 171357Z 20013KT 26/16 A3004 RMK A01 T02580162  RH  055%=      5-min Rain = 0
KBR1 171358Z 21013KT 26/16 A3004 RMK A01 T02590164  RH  056%=      5-min Rain = 0
KBR1 171359Z 21016KT 26/16 A3004 RMK A01 T02600163  RH  055%=      5-min Rain = 0
KBR1 171400Z 22014G19KT 26/16 A3004 RMK A01 T02600162  RH  055%=      5-min Rain = 0
KBR1 171401Z 21012G18KT 26/16 A3004 RMK A01 T02610163  RH  055%=      5-min Rain = 0
KBR1 171402Z 21016KT 26/16 A3004 RMK A01 T02620162  RH  054%=      5-min Rain = 0
KBR1 171403Z 21017KT 26/16 A3004 RMK A01 T02630163  RH  054%=      5-min Rain = 0
KBR1 171404Z 21018KT 26/16 A3004 RMK A01 T02640161  RH  053%=      5-min Rain = 0
KBR1 171405Z 21017KT 26/16 A3004 RMK A01 T02640159  RH  053%=      5-min Rain = 0
KBR1 171406Z 22015G20KT 26/16 A3004 RMK A01 T02640163  RH  054%=      5-min Rain = 0
KBR1 171407Z 21016KT 27/16 A3004 RMK A01 T02650161  RH  053%=      5-min Rain = 0
KBR1 171408Z 21015KT 27/16 A3004 RMK A01 T02660163  RH  053%=      5-min Rain = 0
KBR1 171409Z 22016KT 27/16 A3004 RMK A01 T02670164  RH  053%=      5-min Rain = 0
KBR1 171410Z 20012KT 27/17 A3004 RMK A01 T02680166  RH  054%=      5-min Rain = 0
KBR1 171411Z 21012KT 27/17 A3004 RMK A01 T02690168  RH  054%=      5-min Rain = 0
KBR1 171412Z 21016G21KT 27/17 A3004 RMK A01 T02710168  RH  053%=      5-min Rain = 0
KBR1 171413Z 21015KT 27/16 A3004 RMK A01 T02720164  RH  052%=      5-min Rain = 0
KBR1 171414Z 21015G20KT 27/17 A3004 RMK A01 T02710166  RH  053%=      5-min Rain = 0
KBR1 171415Z 22017KT 27/17 A3004 RMK A01 T02710165  RH  052%=      5-min Rain = 0
KBR1 171416Z 21015KT 27/17 A3004 RMK A01 T02710165  RH  052%=      5-min Rain = 0
KBR1 171417Z 21012KT 27/17 A3004 RMK A01 T02710168  RH  053%=      5-min Rain = 0
KBR1 171418Z 21015KT 27/17 A3004 RMK A01 T02730168  RH  053%=      5-min Rain = 0
KBR1 171419Z 21014KT 27/17 A3004 RMK A01 T02730167  RH  052%=      5-min Rain = 0
KBR1 171420Z 21014KT 27/17 A3004 RMK A01 T02730168  RH  053%=      5-min Rain = 0
KBR1 171421Z 21013KT 27/17 A3004 RMK A01 T02730169  RH  053%=      5-min Rain = 0
KBR1 171422Z 21014KT 27/17 A3004 RMK A01 T02730169  RH  053%=      5-min Rain = 0
KBR1 171423Z 21012KT 27/17 A3004 RMK A01 T02740170  RH  053%=      5-min Rain = 0
KBR1 171424Z 22015KT 28/17 A3004 RMK A01 T02750170  RH  053%=      5-min Rain = 0
KBR1 171425Z 21017KT 28/17 A3004 RMK A01 T02750169  RH  052%=      5-min Rain = 0
KBR1 171426Z 21016KT 28/17 A3004 RMK A01 T02760170  RH  053%=      5-min Rain = 0
KBR1 171427Z 21016KT 28/17 A3004 RMK A01 T02770171  RH  052%=      5-min Rain = 0
KBR1 171428Z 21018KT 28/17 A3004 RMK A01 T02780170  RH  052%=      5-min Rain = 0
KBR1 171429Z 21017G22KT 28/17 A3004 RMK A01 T02780170  RH  052%=      5-min Rain = 0
KBR1 171430Z 21018KT 28/17 A3004 RMK A01 T02770170  RH  052%=      5-min Rain = 0
KBR1 171431Z 21017KT 28/17 A3004 RMK A01 T02780170  RH  052%=      5-min Rain = 0
KBR1 171432Z 21018KT 28/17 A3004 RMK A01 T02780170  RH  052%=      5-min Rain = 0
KBR1 171433Z 21016KT 28/17 A3004 RMK A01 T02780172  RH  053%=      5-min Rain = 0
KBR1 171434Z 21019KT 28/17 A3004 RMK A01 T02790170  RH  052%=      5-min Rain = 0
KBR1 171435Z 22019KT 28/17 A3004 RMK A01 T02790170  RH  051%=      5-min Rain = 0
KBR1 171436Z 22018KT 28/17 A3004 RMK A01 T02780171  RH  052%=      5-min Rain = 0
KBR1 171437Z 22014KT 28/17 A3004 RMK A01 T02790173  RH  052%=      5-min Rain = 0
KBR1 171438Z 22014G19KT 28/18 A3004 RMK A01 T02820176  RH  053%=      5-min Rain = 0
KBR1 171439Z 22018KT 28/17 A3004 RMK A01 T02830173  RH  051%=      5-min Rain = 0
KBR1 171440Z 22017KT 28/17 A3004 RMK A01 T02830173  RH  051%=      5-min Rain = 0
KBR1 171441Z 22016KT 28/17 A3004 RMK A01 T02820173  RH  052%=      5-min Rain = 0
KBR1 171442Z 21015KT 28/17 A3004 RMK A01 T02820174  RH  052%=      5-min Rain = 0
KBR1 171443Z 20018KT 28/17 A3004 RMK A01 T02820173  RH  051%=      5-min Rain = 0
KBR1 171444Z 21016KT 28/17 A3004 RMK A01 T02830174  RH  052%=      5-min Rain = 0
KBR1 171445Z 21014KT 28/18 A3004 RMK A01 T02830177  RH  053%=      5-min Rain = 0
KBR1 171446Z 21016KT 29/18 A3004 RMK A01 T02850175  RH  051%=      5-min Rain = 0
KBR1 171447Z 21017KT 29/18 A3004 RMK A01 T02850175  RH  051%=      5-min Rain = 0
KBR1 171448Z 21017KT 29/18 A3004 RMK A01 T02850175  RH  051%=      5-min Rain = 0
KBR1 171449Z 22015KT 28/18 A3004 RMK A01 T02830176  RH  052%=      5-min Rain = 0
KBR1 171450Z 21016KT 28/18 A3004 RMK A01 T02830176  RH  052%=      5-min Rain = 0
KBR1 171451Z 20017KT 28/18 A3004 RMK A01 T02840175  RH  052%=      5-min Rain = 0
KBR1 171452Z 21015KT 29/18 A3004 RMK A01 T02850177  RH  052%=      5-min Rain = 0
KBR1 171453Z 21014KT 29/18 A3004 RMK A01 T02870178  RH  052%=      5-min Rain = 0
KBR1 171454Z 21017KT 29/18 A3004 RMK A01 T02890177  RH  051%=      5-min Rain = 0
KBR1 171455Z 21017KT 29/18 A3004 RMK A01 T02890177  RH  051%=      5-min Rain = 0
KBR1 171456Z 21017KT 29/18 A3004 RMK A01 T02890178  RH  051%=      5-min Rain = 0
KBR1 171457Z 21015KT 29/18 A3004 RMK A01 T02890177  RH  051%=      5-min Rain = 0
KBR1 171458Z 22017G24KT 29/18 A3004 RMK A01 T02890179  RH  051%=      5-min Rain = 0
KBR1 171459Z 22018G24KT 29/18 A3004 RMK A01 T02900179  RH  051%=      5-min Rain = 0
KBR1 171500Z 22021KT 29/18 A3004 RMK A01 T02910181  RH  051%=      5-min Rain = 0
KBR1 171501Z 22021KT 29/18 A3004 RMK A01 T02920178  RH  050%=      5-min Rain = 0
KBR1 171502Z 21019G24KT 29/18 A3004 RMK A01 T02920181  RH  051%=      5-min Rain = 0
KBR1 171503Z 22017G22KT 29/18 A3004 RMK A01 T02920180  RH  051%=      5-min Rain = 0
KBR1 171504Z 22018KT 29/18 A3004 RMK A01 T02930181  RH  051%=      5-min Rain = 0
KBR1 171505Z 23020KT 29/18 A3004 RMK A01 T02930180  RH  051%=      5-min Rain = 0
KBR1 171506Z 23018KT 29/18 A3004 RMK A01 T02930180  RH  051%=      5-min Rain = 0
KBR1 171507Z 22022KT 29/18 A3004 RMK A01 T02930181  RH  051%=      5-min Rain = 0
KBR1 171508Z 23021KT 29/18 A3004 RMK A01 T02940179  RH  050%=      5-min Rain = 0
KBR1 171509Z 23018KT 29/18 A3004 RMK A01 T02930181  RH  051%=      5-min Rain = 0
KBR1 171510Z 23017KT 29/18 A3004 RMK A01 T02940182  RH  051%=      5-min Rain = 0
KBR1 171511Z 23020G25KT 30/18 A3004 RMK A01 T02960181  RH  050%=      5-min Rain = 0
KBR1 171512Z 23020G25KT 30/18 A3004 RMK A01 T02960180  RH  050%=      5-min Rain = 0
KBR1 171513Z 22021G27KT 29/18 A3004 RMK A01 T02940178  RH  050%=      5-min Rain = 0
KBR1 171514Z 23021KT 29/18 A3004 RMK A01 T02930180  RH  051%=      5-min Rain = 0
KBR1 171515Z 22021KT 29/18 A3004 RMK A01 T02940179  RH  050%=      5-min Rain = 0
KBR1 171516Z 22020KT 29/18 A3004 RMK A01 T02940179  RH  050%=      5-min Rain = 0
KBR1 171517Z 22022KT 30/18 A3004 RMK A01 T02950179  RH  050%=      5-min Rain = 0
KBR1 171518Z 22022KT 29/18 A3004 RMK A01 T02940179  RH  050%=      5-min Rain = 0
KBR1 171519Z 21020KT 29/18 A3004 RMK A01 T02940179  RH  050%=      5-min Rain = 0
KBR1 171520Z 21022KT 29/18 A3004 RMK A01 T02940179  RH  050%=      5-min Rain = 0
KBR1 171521Z 21020G25KT 30/18 A3004 RMK A01 T02950180  RH  050%=      5-min Rain = 0
KBR1 171522Z 21019KT 30/18 A3004 RMK A01 T02950179  RH  050%=      5-min Rain = 0
KBR1 171523Z 22018KT 30/18 A3004 RMK A01 T02950181  RH  050%=      5-min Rain = 0
KBR1 171524Z 22018KT 30/18 A3004 RMK A01 T02980181  RH  050%=      5-min Rain = 0
KBR1 171525Z 22019KT 30/18 A3004 RMK A01 T02990181  RH  049%=      5-min Rain = 0
KBR1 171526Z 22020G26KT 30/18 A3004 RMK A01 T02990181  RH  049%=      5-min Rain = 0
KBR1 171527Z 22020KT 30/18 A3004 RMK A01 T03000182  RH  049%=      5-min Rain = 0
KBR1 171528Z 23018KT 30/18 A3004 RMK A01 T02990181  RH  049%=      5-min Rain = 0
KBR1 171529Z 22017KT 30/18 A3004 RMK A01 T03000183  RH  050%=      5-min Rain = 0
KBR1 171530Z 23017KT 30/18 A3004 RMK A01 T03030184  RH  049%=      5-min Rain = 0
KBR1 171531Z 22019KT 30/18 A3004 RMK A01 T03040182  RH  048%=      5-min Rain = 0
KBR1 171532Z 22018KT 30/18 A3004 RMK A01 T03020180  RH  048%=      5-min Rain = 0
KBR1 171533Z 21019KT 30/18 A3004 RMK A01 T03000181  RH  049%=      5-min Rain = 0
KBR1 171534Z 21016KT 30/18 A3004 RMK A01 T03010184  RH  049%=      5-min Rain = 0
KBR1 171535Z 22016KT 30/18 A3004 RMK A01 T03040184  RH  049%=      5-min Rain = 0
KBR1 171536Z 22018KT 31/19 A3004 RMK A01 T03060186  RH  049%=      5-min Rain = 0
KBR1 171537Z 22020KT 31/19 A3004 RMK A01 T03070185  RH  048%=      5-min Rain = 0
KBR1 171538Z 21020KT 31/18 A3004 RMK A01 T03070182  RH  047%=      5-min Rain = 0
KBR1 171539Z 21018KT 31/18 A3004 RMK A01 T03050183  RH  048%=      5-min Rain = 0
KBR1 171540Z 21017G22KT 31/19 A3004 RMK A01 T03050186  RH  049%=      5-min Rain = 0
KBR1 171541Z 21018KT 31/18 A3004 RMK A01 T03070182  RH  047%=      5-min Rain = 0
KBR1 171542Z 21016KT 31/19 A3004 RMK A01 T03060185  RH  048%=      5-min Rain = 0
KBR1 171543Z 23021KT 31/18 A3004 RMK A01 T03070183  RH  047%=      5-min Rain = 0
KBR1 171544Z 23021KT 31/18 A3004 RMK A01 T03060183  RH  048%=      5-min Rain = 0
KBR1 171545Z 22020G25KT 30/18 A3004 RMK A01 T03040182  RH  048%=      5-min Rain = 0
KBR1 171546Z 21020KT 31/18 A3004 RMK A01 T03050182  RH  048%=      5-min Rain = 0
KBR1 171547Z 21021KT 31/18 A3004 RMK A01 T03050183  RH  048%=      5-min Rain = 0
KBR1 171548Z 22019KT 30/18 A3004 RMK A01 T03040182  RH  048%=      5-min Rain = 0
KBR1 171549Z 22019KT 30/18 A3004 RMK A01 T03010181  RH  049%=      5-min Rain = 0
KBR1 171550Z 22017KT 30/18 A3004 RMK A01 T02990182  RH  049%=      5-min Rain = 0
KBR1 171551Z 22020G25KT 30/19 A3004 RMK A01 T03030185  RH  049%=      5-min Rain = 0
KBR1 171552Z 22020KT 31/18 A3004 RMK A01 T03070184  RH  048%=      5-min Rain = 0
KBR1 171553Z 22019G24KT 31/18 A3004 RMK A01 T03080184  RH  048%=      5-min Rain = 0
KBR1 171554Z 23022KT 31/18 A3004 RMK A01 T03090183  RH  047%=      5-min Rain = 0
KBR1 171555Z 23023G28KT 31/18 A3004 RMK A01 T03080182  RH  047%=      5-min Rain = 0
KBR1 171556Z 23022KT 31/18 A3004 RMK A01 T03060181  RH  047%=      5-min Rain = 0
KBR1 171557Z 23021KT 31/18 A3004 RMK A01 T03060182  RH  048%=      5-min Rain = 0
KBR1 171558Z 22022KT 31/18 A3004 RMK A01 T03060182  RH  048%=      5-min Rain = 0
KBR1 171559Z 22018G23KT 31/19 A3004 RMK A01 T03080186  RH  048%=      5-min Rain = 0
KBR1 171600Z 23021G26KT 31/18 A3004 RMK A01 T03110184  RH  047%=      5-min Rain = 0
KBR1 171601Z 22018G23KT 31/18 A3004 RMK A01 T03100184  RH  047%=      5-min Rain = 0
KBR1 171602Z 22018KT 31/18 A3004 RMK A01 T03090184  RH  047%=      5-min Rain = 0
KBR1 171603Z 22018KT 31/19 A3004 RMK A01 T03090185  RH  048%=      5-min Rain = 0
KBR1 171604Z 23021KT 31/18 A3004 RMK A01 T03110182  RH  046%=      5-min Rain = 0
KBR1 171605Z 23017KT 31/18 A3004 RMK A01 T03100184  RH  047%=      5-min Rain = 0
KBR1 171606Z 23018G23KT 31/19 A3004 RMK A01 T03110185  RH  047%=      5-min Rain = 0
KBR1 171607Z 23020KT 31/18 A3004 RMK A01 T03120183  RH  046%=      5-min Rain = 0
KBR1 171608Z 22017G22KT 31/18 A3004 RMK A01 T03100183  RH  047%=      5-min Rain = 0
KBR1 171609Z 22022KT 31/18 A3004 RMK A01 T03110183  RH  047%=      5-min Rain = 0
KBR1 171610Z 22020KT 31/18 A3004 RMK A01 T03110182  RH  046%=      5-min Rain = 0
KBR1 171611Z 22021G26KT 31/18 A3004 RMK A01 T03100183  RH  047%=      5-min Rain = 0
KBR1 171612Z 22022G27KT 31/18 A3004 RMK A01 T03100181  RH  046%=      5-min Rain = 0
KBR1 171613Z 22022KT 31/18 A3004 RMK A01 T03100180  RH  046%=      5-min Rain = 0
KBR1 171614Z 22018KT 31/18 A3004 RMK A01 T03090182  RH  047%=      5-min Rain = 0
KBR1 171615Z 22018G25KT 31/18 A3004 RMK A01 T03120184  RH  046%=      5-min Rain = 0
KBR1 171616Z 22022KT 31/18 A3004 RMK A01 T03140183  RH  046%=      5-min Rain = 0
KBR1 171617Z 22019KT 31/18 A3003 RMK A01 T03120182  RH  046%=      5-min Rain = 0
KBR1 171618Z 21020KT 31/18 A3003 RMK A01 T03120182  RH  046%=      5-min Rain = 0
KBR1 171619Z 21022KT 31/18 A3003 RMK A01 T03110181  RH  046%=      5-min Rain = 0
KBR1 171620Z 21021KT 31/18 A3003 RMK A01 T03110181  RH  046%=      5-min Rain = 0
KBR1 171621Z 20020KT 31/18 A3003 RMK A01 T03110180  RH  046%=      5-min Rain = 0
KBR1 171622Z 21017KT 31/18 A3003 RMK A01 T03100182  RH  047%=      5-min Rain = 0
KBR1 171623Z 21020KT 31/18 A3004 RMK A01 T03140184  RH  046%=      5-min Rain = 0
KBR1 171624Z 22018KT 31/18 A3003 RMK A01 T03140184  RH  046%=      5-min Rain = 0
KBR1 171625Z 21017KT 31/19 A3003 RMK A01 T03140185  RH  046%=      5-min Rain = 0
KBR1 171626Z 22018KT 32/19 A3004 RMK A01 T03160186  RH  046%=      5-min Rain = 0
KBR1 171627Z 23020KT 32/18 A3004 RMK A01 T03170183  RH  045%=      5-min Rain = 0
KBR1 171628Z 24017KT 32/18 A3004 RMK A01 T03150182  RH  045%=      5-min Rain = 0
KBR1 171629Z 23019G24KT 32/19 A3004 RMK A01 T03160185  RH  046%=      5-min Rain = 0
KBR1 171630Z 23018KT 32/18 A3004 RMK A01 T03180184  RH  045%=      5-min Rain = 0
KBR1 171631Z 23018KT 32/18 A3004 RMK A01 T03160183  RH  045%=      5-min Rain = 0
KBR1 171632Z 23017KT 32/19 A3004 RMK A01 T03160185  RH  046%=      5-min Rain = 0
KBR1 171633Z 23017KT 32/19 A3004 RMK A01 T03190185  RH  045%=      5-min Rain = 0
KBR1 171634Z 24018KT 32/19 A3004 RMK A01 T03190185  RH  045%=      5-min Rain = 0
KBR1 171635Z 24020KT 32/18 A3004 RMK A01 T03180183  RH  045%=      5-min Rain = 0
KBR1 171636Z 21021KT 32/18 A3003 RMK A01 T03170184  RH  045%=      5-min Rain = 0
KBR1 171637Z 23019G24KT 32/18 A3004 RMK A01 T03170184  RH  045%=      5-min Rain = 0
KBR1 171638Z 23018KT 32/19 A3004 RMK A01 T03200185  RH  045%=      5-min Rain = 0
KBR1 171639Z 22020KT 32/18 A3004 RMK A01 T03210183  RH  044%=      5-min Rain = 0
KBR1 171640Z 23021KT 32/18 A3003 RMK A01 T03190181  RH  044%=      5-min Rain = 0
KBR1 171641Z 23019KT 32/18 A3003 RMK A01 T03170180  RH  044%=      5-min Rain = 0
KBR1 171642Z 24023KT 32/18 A3003 RMK A01 T03160181  RH  045%=      5-min Rain = 0
KBR1 171643Z 22020KT 32/18 A3003 RMK A01 T03160181  RH  045%=      5-min Rain = 0
KBR1 171644Z 21021KT 32/18 A3003 RMK A01 T03170180  RH  044%=      5-min Rain = 0
KBR1 171645Z 21022KT 32/18 A3003 RMK A01 T03170179  RH  044%=      5-min Rain = 0
KBR1 171646Z 22019KT 32/18 A3003 RMK A01 T03170181  RH  044%=      5-min Rain = 0
KBR1 171647Z 23018KT 32/18 A3003 RMK A01 T03180180  RH  044%=      5-min Rain = 0
KBR1 171648Z 21019KT 32/18 A3003 RMK A01 T03180182  RH  044%=      5-min Rain = 0
KBR1 171649Z 23016G21KT 32/18 A3003 RMK A01 T03190183  RH  044%=      5-min Rain = 0
KBR1 171650Z 22017KT 32/18 A3003 RMK A01 T03220183  RH  044%=      5-min Rain = 0
KBR1 171651Z 22017KT 32/18 A3003 RMK A01 T03220183  RH  044%=      5-min Rain = 0
KBR1 171652Z 22021G26KT 32/18 A3003 RMK A01 T03240183  RH  043%=      5-min Rain = 0
KBR1 171653Z 22019KT 33/18 A3003 RMK A01 T03260181  RH  042%=      5-min Rain = 0
KBR1 171654Z 22022KT 33/18 A3003 RMK A01 T03260181  RH  042%=      5-min Rain = 0
KBR1 171655Z 23019KT 32/18 A3003 RMK A01 T03240179  RH  042%=      5-min Rain = 0
KBR1 171656Z 23019G24KT 32/18 A3003 RMK A01 T03220179  RH  043%=      5-min Rain = 0
KBR1 171657Z 24019KT 32/18 A3003 RMK A01 T03210180  RH  043%=      5-min Rain = 0
KBR1 171658Z 23019G24KT 32/18 A3003 RMK A01 T03230181  RH  043%=      5-min Rain = 0
KBR1 171659Z 23020KT 33/18 A3003 RMK A01 T03250181  RH  043%=      5-min Rain = 0
KBR1 171700Z 23019KT 32/18 A3003 RMK A01 T03240179  RH  042%=      5-min Rain = 0
KBR1 171701Z 22017KT 32/18 A3003 RMK A01 T03230181  RH  043%=      5-min Rain = 0
KBR1 171702Z 22018G23KT 33/18 A3003 RMK A01 T03260182  RH  043%=      5-min Rain = 0
KBR1 171703Z 23017KT 33/18 A3003 RMK A01 T03280181  RH  042%=      5-min Rain = 0
KBR1 171704Z 23018KT 33/18 A3003 RMK A01 T03280181  RH  042%=      5-min Rain = 0
KBR1 171705Z 22017KT 33/18 A3003 RMK A01 T03270182  RH  042%=      5-min Rain = 0
KBR1 171706Z 22017KT 33/18 A3003 RMK A01 T03320184  RH  042%=      5-min Rain = 0
KBR1 171707Z 22017KT 33/18 A3003 RMK A01 T03330183  RH  041%=      5-min Rain = 0
KBR1 171708Z 23019G24KT 33/18 A3003 RMK A01 T03320181  RH  041%=      5-min Rain = 0
KBR1 171709Z 23022G27KT 33/17 A3003 RMK A01 T03300174  RH  039%=      5-min Rain = 0
KBR1 171710Z 21019G25KT 33/18 A3003 RMK A01 T03290178  RH  041%=      5-min Rain = 0
KBR1 171711Z 20019KT 33/18 A3003 RMK A01 T03310178  RH  040%=      5-min Rain = 0
KBR1 171712Z 21016KT 33/18 A3003 RMK A01 T03290179  RH  041%=      5-min Rain = 0
KBR1 171713Z 22020KT 33/18 A3003 RMK A01 T03320181  RH  041%=      5-min Rain = 0
KBR1 171714Z 22021KT 33/18 A3003 RMK A01 T03320179  RH  040%=      5-min Rain = 0
KBR1 171715Z 23018G23KT 33/18 A3003 RMK A01 T03290178  RH  041%=      5-min Rain = 0
KBR1 171716Z 22015KT 33/18 A3003 RMK A01 T03270177  RH  041%=      5-min Rain = 0
KBR1 171717Z 22017G22KT 33/18 A3003 RMK A01 T03270179  RH  041%=      5-min Rain = 0
KBR1 171718Z 22019KT 33/18 A3003 RMK A01 T03310177  RH  040%=      5-min Rain = 0
KBR1 171719Z 21018KT 33/18 A3003 RMK A01 T03320179  RH  040%=      5-min Rain = 0
KBR1 171720Z 22019G24KT 33/18 A3003 RMK A01 T03320179  RH  040%=      5-min Rain = 0
KBR1 171721Z 21017KT 33/18 A3002 RMK A01 T03320178  RH  040%=      5-min Rain = 0
KBR1 171722Z 22017KT 33/18 A3002 RMK A01 T03310179  RH  040%=      5-min Rain = 0
KBR1 171723Z 23016KT 33/18 A3002 RMK A01 T03310177  RH  040%=      5-min Rain = 0
KBR1 171724Z 23019KT 33/18 A3002 RMK A01 T03320180  RH  040%=      5-min Rain = 0
KBR1 171725Z 22018G23KT 33/18 A3002 RMK A01 T03330179  RH  040%=      5-min Rain = 0
KBR1 171726Z 22014KT 33/18 A3002 RMK A01 T03300179  RH  041%=      5-min Rain = 0
KBR1 171727Z 23018KT 33/18 A3002 RMK A01 T03340182  RH  041%=      5-min Rain = 0
KBR1 171728Z 21020KT 34/18 A3002 RMK A01 T03350180  RH  040%=      5-min Rain = 0
KBR1 171729Z 21017KT 33/18 A3002 RMK A01 T03340181  RH  040%=      5-min Rain = 0
KBR1 171730Z 21016KT 34/18 A3002 RMK A01 T03350180  RH  040%=      5-min Rain = 0
KBR1 171731Z 22017KT 33/18 A3002 RMK A01 T03340181  RH  040%=      5-min Rain = 0
KBR1 171732Z 21017KT 34/18 A3002 RMK A01 T03350181  RH  040%=      5-min Rain = 0
KBR1 171733Z 21018KT 34/18 A3002 RMK A01 T03390177  RH  038%=      5-min Rain = 0
KBR1 171734Z 22015G21KT 34/17 A3002 RMK A01 T03370172  RH  038%=      5-min Rain = 0
KBR1 171735Z 23017KT 34/18 A3002 RMK A01 T03360180  RH  040%=      5-min Rain = 0
KBR1 171736Z 22019KT 34/18 A3002 RMK A01 T03360180  RH  040%=      5-min Rain = 0
KBR1 171737Z 21019G24KT 34/18 A3002 RMK A01 T03360178  RH  039%=      5-min Rain = 0
KBR1 171738Z 20017KT 34/18 A3002 RMK A01 T03390176  RH  038%=      5-min Rain = 0
KBR1 171739Z 20018KT 35/18 A3002 RMK A01 T03450179  RH  037%=      5-min Rain = 0
KBR1 171740Z 20017KT 35/18 A3002 RMK A01 T03470178  RH  037%=      5-min Rain = 0
KBR1 171741Z 20021KT 35/18 A3002 RMK A01 T03450177  RH  037%=      5-min Rain = 0
KBR1 171742Z 21019G24KT 34/17 A3002 RMK A01 T03420172  RH  036%=      5-min Rain = 0
KBR1 171743Z 20018KT 34/17 A3002 RMK A01 T03400173  RH  037%=      5-min Rain = 0
KBR1 171744Z 20018G23KT 34/18 A3002 RMK A01 T03400175  RH  038%=      5-min Rain = 0
KBR1 171745Z 22022KT 34/18 A3001 RMK A01 T03420177  RH  038%=      5-min Rain = 0
KBR1 171746Z 21020KT 34/18 A3002 RMK A01 T03410176  RH  038%=      5-min Rain = 0
KBR1 171747Z 20021KT 34/17 A3002 RMK A01 T03390171  RH  037%=      5-min Rain = 0
KBR1 171748Z 20016KT 34/17 A3002 RMK A01 T03370171  RH  037%=      5-min Rain = 0
KBR1 171749Z 23020KT 34/17 A3002 RMK A01 T03410173  RH  037%=      5-min Rain = 0
KBR1 171750Z 23022KT 34/17 A3002 RMK A01 T03400173  RH  037%=      5-min Rain = 0
KBR1 171751Z 22021KT 34/17 A3002 RMK A01 T03380171  RH  037%=      5-min Rain = 0
KBR1 171752Z 22020KT 34/17 A3002 RMK A01 T03400170  RH  036%=      5-min Rain = 0
KBR1 171753Z 22020KT 34/17 A3002 RMK A01 T03420172  RH  036%=      5-min Rain = 0
KBR1 171754Z 22020KT 34/17 A3002 RMK A01 T03420174  RH  037%=      5-min Rain = 0
KBR1 171755Z 23021G26KT 34/17 A3002 RMK A01 T03400171  RH  037%=      5-min Rain = 0
KBR1 171756Z 23021G27KT 34/17 A3001 RMK A01 T03380170  RH  037%=      5-min Rain = 0
KBR1 171757Z 23022KT 34/17 A3001 RMK A01 T03410168  RH  036%=      5-min Rain = 0
KBR1 171758Z 21020KT 34/17 A3001 RMK A01 T03400170  RH  036%=      5-min Rain = 0
KBR1 171759Z 23020KT 34/17 A3001 RMK A01 T03390171  RH  037%=      5-min Rain = 0
KBR1 171800Z 23019KT 34/17 A3001 RMK A01 T03390171  RH  037%=      5-min Rain = 0
KBR1 171801Z 22020G25KT 34/17 A3001 RMK A01 T03400173  RH  037%=      5-min Rain = 0
KBR1 171802Z 23022KT 35/17 A3001 RMK A01 T03460172  RH  036%=      5-min Rain = 0
KBR1 171803Z 23021KT 34/17 A3001 RMK A01 T03440171  RH  036%=      5-min Rain = 0
KBR1 171804Z 23020KT 34/17 A3001 RMK A01 T03430172  RH  036%=      5-min Rain = 0
KBR1 171805Z 23021KT 34/17 A3001 RMK A01 T03420170  RH  036%=      5-min Rain = 0
KBR1 171806Z 23021KT 34/17 A3001 RMK A01 T03440167  RH  035%=      5-min Rain = 0
KBR1 171807Z 23022KT 35/17 A3001 RMK A01 T03450165  RH  034%=      5-min Rain = 0
KBR1 171808Z 22022KT 34/17 A3001 RMK A01 T03440166  RH  035%=      5-min Rain = 0
KBR1 171809Z 21020G25KT 35/17 A3001 RMK A01 T03450166  RH  035%=      5-min Rain = 0
KBR1 171810Z 20016KT 35/17 A3001 RMK A01 T03490171  RH  035%=      5-min Rain = 0
KBR1 171811Z 21016KT 35/17 A3001 RMK A01 T03500169  RH  034%=      5-min Rain = 0
KBR1 171812Z 22016KT 35/17 A3001 RMK A01 T03480172  RH  035%=      5-min Rain = 0
KBR1 171813Z 22018KT 35/17 A30 RMK A01 T03480173  RH  035%=      5-min Rain = 0
KBR1 171814Z 21018KT 35/17 A30 RMK A01 T03470171  RH  035%=      5-min Rain = 0
KBR1 171815Z 20016G21KT 35/17 A30 RMK A01 T03490173  RH  035%=      5-min Rain = 0
KBR1 171816Z 19017KT 35/17 A30 RMK A01 T03520167  RH  033%=      5-min Rain = 0
KBR1 171817Z 21015KT 35/17 A30 RMK A01 T03510170  RH  034%=      5-min Rain = 0
KBR1 171818Z 21017KT 35/17 A30 RMK A01 T03540172  RH  034%=      5-min Rain = 0
KBR1 171819Z 21019KT 36/17 A30 RMK A01 T03550170  RH  034%=      5-min Rain = 0
KBR1 171820Z 21013KT 36/17 A30 RMK A01 T03560171  RH  033%=      5-min Rain = 0
KBR1 171821Z 21017G26KT 36/17 A30 RMK A01 T03590174  RH  034%=      5-min Rain = 0
KBR1 171822Z 22019KT 36/17 A30 RMK A01 T03580171  RH  033%=      5-min Rain = 0
KBR1 171823Z 22019G30KT 36/17 A30 RMK A01 T03550170  RH  034%=      5-min Rain = 0
KBR1 171824Z 19017G26KT 36/17 A2999 RMK A01 T03560169  RH  033%=      5-min Rain = 0
KBR1 171825Z 21024KT 36/17 A2999 RMK A01 T03570166  RH  032%=      5-min Rain = 0
KBR1 171826Z 20021KT 35/16 A30 RMK A01 T03520158  RH  031%=      5-min Rain = 0
KBR1 171827Z 22020KT 35/16 A30 RMK A01 T03490160  RH  032%=      5-min Rain = 0
KBR1 171828Z 22020KT 35/16 A30 RMK A01 T03500161  RH  032%=      5-min Rain = 0
KBR1 171829Z 22019KT 35/16 A30 RMK A01 T03490162  RH  033%=      5-min Rain = 0
KBR1 171830Z 21018G24KT 35/16 A30 RMK A01 T03500160  RH  032%=      5-min Rain = 0
KBR1 171831Z 20019G26KT 35/16 A30 RMK A01 T03530164  RH  032%=      5-min Rain = 0
KBR1 171832Z 20017KT 35/17 A30 RMK A01 T03530166  RH  033%=      5-min Rain = 0
KBR1 171833Z 19020KT 35/16 A2999 RMK A01 T03520163  RH  033%=      5-min Rain = 0
KBR1 171834Z 20016KT 35/16 A2999 RMK A01 T03490162  RH  033%=      5-min Rain = 0
KBR1 171835Z 20020G25KT 35/17 A2999 RMK A01 T03530166  RH  033%=      5-min Rain = 0
KBR1 171836Z 21019KT 36/17 A2999 RMK A01 T03570165  RH  032%=      5-min Rain = 0
KBR1 171837Z 20018G23KT 36/17 A2999 RMK A01 T03590167  RH  032%=      5-min Rain = 0
KBR1 171838Z 19019KT 36/17 A2999 RMK A01 T03600166  RH  032%=      5-min Rain = 0
KBR1 171839Z 20022KT 36/17 A2999 RMK A01 T03570165  RH  032%=      5-min Rain = 0
KBR1 171840Z 19018KT 35/16 A2999 RMK A01 T03540160  RH  032%=      5-min Rain = 0
KBR1 171841Z 20016KT 35/16 A2999 RMK A01 T03510163  RH  033%=      5-min Rain = 0
KBR1 171842Z 21022KT 36/16 A2999 RMK A01 T03580162  RH  031%=      5-min Rain = 0
KBR1 171843Z 20022KT 36/16 A2999 RMK A01 T03590156  RH  030%=      5-min Rain = 0
KBR1 171844Z 20018KT 36/16 A2999 RMK A01 T03560159  RH  031%=      5-min Rain = 0
KBR1 171845Z 22017KT 36/16 A2999 RMK A01 T03550162  RH  032%=      5-min Rain = 0
KBR1 171846Z 21017KT 36/16 A2999 RMK A01 T03580164  RH  032%=      5-min Rain = 0
KBR1 171847Z 21017KT 35/16 A2999 RMK A01 T03540164  RH  032%=      5-min Rain = 0
KBR1 171848Z 21020G26KT 35/17 A2999 RMK A01 T03530165  RH  033%=      5-min Rain = 0
KBR1 171849Z 21022KT 35/16 A2999 RMK A01 T03540162  RH  032%=      5-min Rain = 0
KBR1 171850Z 20021KT 35/16 A2999 RMK A01 T03540159  RH  031%=      5-min Rain = 0
KBR1 171851Z 19024KT 35/16 A2999 RMK A01 T03530158  RH  031%=      5-min Rain = 0
KBR1 171852Z 19018KT 35/16 A2999 RMK A01 T03540162  RH  032%=      5-min Rain = 0
KBR1 171853Z 20016KT 36/16 A2999 RMK A01 T03570162  RH  032%=      5-min Rain = 0
KBR1 171854Z 18018KT 35/16 A2999 RMK A01 T03540161  RH  032%=      5-min Rain = 0
KBR1 171855Z 20018KT 36/16 A2999 RMK A01 T03560160  RH  031%=      5-min Rain = 0
KBR1 171856Z 21018G27KT 36/16 A2999 RMK A01 T03580164  RH  032%=      5-min Rain = 0
KBR1 171857Z 21024KT 36/16 A2999 RMK A01 T03610160  RH  030%=      5-min Rain = 0
KBR1 171858Z 22019G24KT 36/16 A2999 RMK A01 T03590158  RH  030%=      5-min Rain = 0
KBR1 171859Z 21017G23KT 36/16 A2999 RMK A01 T03580160  RH  031%=      5-min Rain = 0
KBR1 171900Z 21015G22KT 36/16 A2999 RMK A01 T03560157  RH  031%=      5-min Rain = 0
KBR1 171901Z 21019KT 36/16 A2999 RMK A01 T03580161  RH  031%=      5-min Rain = 0
KBR1 171902Z 21017KT 36/16 A2999 RMK A01 T03580162  RH  031%=      5-min Rain = 0
KBR1 171903Z 22021KT 36/16 A2999 RMK A01 T03590162  RH  031%=      5-min Rain = 0
KBR1 171904Z 21020KT 36/16 A2999 RMK A01 T03600160  RH  031%=      5-min Rain = 0
KBR1 171905Z 22023KT 36/16 A2999 RMK A01 T03590161  RH  031%=      5-min Rain = 0
KBR1 171906Z 22020KT 36/16 A2999 RMK A01 T03590159  RH  030%=      5-min Rain = 0
KBR1 171907Z 21018KT 36/16 A2999 RMK A01 T03590159  RH  031%=      5-min Rain = 0
KBR1 171908Z 20014KT 36/16 A2999 RMK A01 T03610159  RH  030%=      5-min Rain = 0
KBR1 171909Z 20016KT 36/16 A2999 RMK A01 T03610159  RH  030%=      5-min Rain = 0
KBR1 171910Z 22019G25KT 36/16 A2999 RMK A01 T03600158  RH  030%=      5-min Rain = 0
KBR1 171911Z 22020KT 36/16 A2999 RMK A01 T03590157  RH  030%=      5-min Rain = 0
KBR1 171912Z 21017KT 36/16 A2999 RMK A01 T03600157  RH  030%=      5-min Rain = 0
KBR1 171913Z 20018G23KT 36/16 A2999 RMK A01 T03610158  RH  030%=      5-min Rain = 0
KBR1 171914Z 20017G24KT 36/16 A2999 RMK A01 T03610159  RH  030%=      5-min Rain = 0
KBR1 171915Z 21019G25KT 36/16 A2998 RMK A01 T03590155  RH  030%=      5-min Rain = 0
KBR1 171916Z 21020KT 36/16 A2998 RMK A01 T03600157  RH  030%=      5-min Rain = 0
KBR1 171917Z 22019KT 36/15 A2998 RMK A01 T03640154  RH  029%=      5-min Rain = 0
KBR1 171918Z 22020KT 36/15 A2998 RMK A01 T03620152  RH  029%=      5-min Rain = 0
KBR1 171919Z 22016KT 36/15 A2999 RMK A01 T03600152  RH  029%=      5-min Rain = 0
KBR1 171920Z 21015KT 36/15 A2998 RMK A01 T03600152  RH  029%=      5-min Rain = 0
KBR1 171921Z 21018KT 36/16 A2998 RMK A01 T03600157  RH  030%=      5-min Rain = 0
KBR1 171922Z 19018KT 36/16 A2998 RMK A01 T03590158  RH  030%=      5-min Rain = 0
KBR1 171923Z 20019G25KT 36/16 A2998 RMK A01 T03580158  RH  031%=      5-min Rain = 0
KBR1 171924Z 19020G25KT 36/16 A2998 RMK A01 T03610156  RH  030%=      5-min Rain = 0
KBR1 171925Z 19017G22KT 36/15 A2998 RMK A01 T03600154  RH  029%=      5-min Rain = 0
KBR1 171926Z 19020KT 36/16 A2998 RMK A01 T03600155  RH  030%=      5-min Rain = 0
KBR1 171927Z 20015KT 36/16 A2998 RMK A01 T03590157  RH  030%=      5-min Rain = 0
KBR1 171928Z 19020KT 36/16 A2998 RMK A01 T03590156  RH  030%=      5-min Rain = 0
KBR1 171929Z 19017KT 36/16 A2998 RMK A01 T03590155  RH  030%=      5-min Rain = 0
KBR1 171930Z 19017KT 36/16 A2998 RMK A01 T03600156  RH  030%=      5-min Rain = 0
KBR1 171931Z 21021KT 36/16 A2998 RMK A01 T03630156  RH  029%=      5-min Rain = 0
KBR1 171932Z 22019KT 36/15 A2998 RMK A01 T03630154  RH  029%=      5-min Rain = 0
KBR1 171933Z 21018KT 36/15 A2998 RMK A01 T03620154  RH  029%=      5-min Rain = 0
KBR1 171934Z 21020KT 36/15 A2998 RMK A01 T03630151  RH  028%=      5-min Rain = 0
KBR1 171935Z 21018KT 36/15 A2998 RMK A01 T03630149  RH  028%=      5-min Rain = 0
KBR1 171936Z 21012KT 37/15 A2998 RMK A01 T03650148  RH  028%=      5-min Rain = 0
KBR1 171937Z 22014KT 37/15 A2998 RMK A01 T03650150  RH  028%=      5-min Rain = 0
KBR1 171938Z 21017KT 36/15 A2998 RMK A01 T03640151  RH  028%=      5-min Rain = 0
KBR1 171939Z 20016KT 36/16 A2998 RMK A01 T03630155  RH  029%=      5-min Rain = 0
KBR1 171940Z 19016G22KT 37/16 A2998 RMK A01 T03650157  RH  029%=      5-min Rain = 0
KBR1 171941Z 19020KT 37/16 A2998 RMK A01 T03660156  RH  029%=      5-min Rain = 0
KBR1 171942Z 19016KT 36/15 A2998 RMK A01 T03610152  RH  029%=      5-min Rain = 0
KBR1 171943Z 21016G21KT 36/16 A2998 RMK A01 T03580155  RH  030%=      5-min Rain = 0
KBR1 171944Z 22019KT 36/15 A2998 RMK A01 T03620153  RH  029%=      5-min Rain = 0
KBR1 171945Z 22018KT 36/15 A2998 RMK A01 T03630152  RH  029%=      5-min Rain = 0
KBR1 171946Z 23016KT 36/15 A2998 RMK A01 T03630154  RH  029%=      5-min Rain = 0
KBR1 171947Z 23016KT 37/16 A2998 RMK A01 T03650155  RH  029%=      5-min Rain = 0
KBR1 171948Z 23015KT 36/15 A2997 RMK A01 T03620153  RH  029%=      5-min Rain = 0
KBR1 171949Z 22018KT 36/16 A2997 RMK A01 T03620156  RH  029%=      5-min Rain = 0
KBR1 171950Z 22018KT 37/15 A2997 RMK A01 T03670154  RH  028%=      5-min Rain = 0
KBR1 171951Z 22019G25KT 37/16 A2997 RMK A01 T03710156  RH  028%=      5-min Rain = 0
KBR1 171952Z 22021KT 37/15 A2997 RMK A01 T03720149  RH  027%=      5-min Rain = 0
KBR1 171953Z 23017KT 37/15 A2997 RMK A01 T03680148  RH  027%=      5-min Rain = 0
KBR1 171954Z 22021KT 37/15 A2997 RMK A01 T03650150  RH  028%=      5-min Rain = 0
KBR1 171955Z 20018G23KT 36/15 A2997 RMK A01 T03640150  RH  028%=      5-min Rain = 0
KBR1 171956Z 22019KT 36/15 A2997 RMK A01 T03640149  RH  028%=      5-min Rain = 0
KBR1 171957Z 22020KT 37/15 A2997 RMK A01 T03650147  RH  027%=      5-min Rain = 0
KBR1 171958Z 21014KT 36/14 A2997 RMK A01 T03630141  RH  027%=      5-min Rain = 0
KBR1 171959Z 21019G26KT 37/15 A2997 RMK A01 T03650146  RH  027%=      5-min Rain = 0
KBR1 172000Z 21021G26KT 37/15 A2997 RMK A01 T03690151  RH  027%=      5-min Rain = 0
KBR1 172001Z 21022KT 37/15 A2997 RMK A01 T03690149  RH  027%=      5-min Rain = 0
KBR1 172002Z 22019KT 37/15 A2997 RMK A01 T03670147  RH  027%=      5-min Rain = 0
KBR1 172003Z 22022KT 37/15 A2997 RMK A01 T03680146  RH  027%=      5-min Rain = 0
KBR1 172004Z 21015G21KT 37/15 A2997 RMK A01 T03710148  RH  027%=      5-min Rain = 0
KBR1 172005Z 21013KT 38/15 A2997 RMK A01 T03760146  RH  026%=      5-min Rain = 0
KBR1 172006Z 22014KT 37/15 A2997 RMK A01 T03720145  RH  026%=      5-min Rain = 0
KBR1 172007Z 21017KT 37/15 A2997 RMK A01 T03710152  RH  027%=      5-min Rain = 0
KBR1 172008Z 21018KT 37/15 A2997 RMK A01 T03740152  RH  027%=      5-min Rain = 0
KBR1 172009Z 18018G23KT 37/15 A2997 RMK A01 T03740145  RH  026%=      5-min Rain = 0
KBR1 172010Z 19021KT 37/14 A2997 RMK A01 T03720144  RH  026%=      5-min Rain = 0
KBR1 172011Z 19021KT 37/14 A2997 RMK A01 T03670142  RH  026%=      5-min Rain = 0
KBR1 172012Z 19015KT 37/14 A2997 RMK A01 T03660140  RH  026%=      5-min Rain = 0
KBR1 172013Z 20018KT 37/15 A2996 RMK A01 T03680147  RH  027%=      5-min Rain = 0
KBR1 172014Z 20016G21KT 37/15 A2996 RMK A01 T03740152  RH  027%=      5-min Rain = 0
KBR1 172015Z 21016KT 38/15 A2996 RMK A01 T03760150  RH  026%=      5-min Rain = 0
KBR1 172016Z 22019G24KT 37/15 A2996 RMK A01 T03670145  RH  027%=      5-min Rain = 0
KBR1 172017Z 23016KT 36/14 A2997 RMK A01 T03590143  RH  028%=      5-min Rain = 0
KBR1 172018Z 23020KT 36/15 A2996 RMK A01 T03610149  RH  028%=      5-min Rain = 0
KBR1 172019Z 23019KT 37/14 A2996 RMK A01 T03650143  RH  027%=      5-min Rain = 0
KBR1 172020Z 23016KT 37/14 A2996 RMK A01 T03650138  RH  026%=      5-min Rain = 0
KBR1 172021Z 21017KT 37/14 A2996 RMK A01 T03690141  RH  026%=      5-min Rain = 0
KBR1 172022Z 21020G28KT 37/14 A2996 RMK A01 T03680140  RH  026%=      5-min Rain = 0
KBR1 172023Z 21020KT 37/14 A2996 RMK A01 T03670141  RH  026%=      5-min Rain = 0
KBR1 172024Z 21019KT 37/14 A2996 RMK A01 T03700142  RH  026%=      5-min Rain = 0
KBR1 172025Z 19017KT 37/14 A2996 RMK A01 T03700144  RH  026%=      5-min Rain = 0
KBR1 172026Z 19016KT 37/14 A2996 RMK A01 T03690144  RH  026%=      5-min Rain = 0
KBR1 172027Z 18017KT 37/14 A2996 RMK A01 T03680144  RH  026%=      5-min Rain = 0
KBR1 172028Z 20017G22KT 37/15 A2996 RMK A01 T03700146  RH  026%=      5-min Rain = 0
KBR1 172029Z 20016G21KT 37/15 A2996 RMK A01 T03720150  RH  027%=      5-min Rain = 0
KBR1 172030Z 19015G20KT 37/14 A2996 RMK A01 T03660141  RH  026%=      5-min Rain = 0
KBR1 172031Z 18016KT 36/14 A2996 RMK A01 T03600144  RH  028%=      5-min Rain = 0
KBR1 172032Z 17016KT 36/15 A2996 RMK A01 T03640148  RH  028%=      5-min Rain = 0
KBR1 172033Z 17014KT 37/15 A2996 RMK A01 T03680149  RH  027%=      5-min Rain = 0
KBR1 172034Z 19013G19KT 37/15 A2996 RMK A01 T03730150  RH  027%=      5-min Rain = 0
KBR1 172035Z 19017KT 37/14 A2996 RMK A01 T03730143  RH  026%=      5-min Rain = 0
KBR1 172036Z 19014G20KT 37/14 A2996 RMK A01 T03650139  RH  026%=      5-min Rain = 0
KBR1 172037Z 18014KT 36/14 A2996 RMK A01 T03590138  RH  027%=      5-min Rain = 0
KBR1 172038Z 19014KT 36/14 A2996 RMK A01 T03560137  RH  027%=      5-min Rain = 0
KBR1 172039Z 19015KT 35/13 A2996 RMK A01 T03540134  RH  027%=      5-min Rain = 0
KBR1 172040Z 18020G26KT 35/14 A2996 RMK A01 T03540139  RH  028%=      5-min Rain = 0
KBR1 172041Z 19022KT 36/14 A2996 RMK A01 T03560144  RH  028%=      5-min Rain = 0
KBR1 172042Z 19016KT 36/15 A2996 RMK A01 T03630145  RH  027%=      5-min Rain = 0
KBR1 172043Z 19015KT 37/15 A2995 RMK A01 T03680146  RH  027%=      5-min Rain = 0
KBR1 172044Z 19019KT 37/14 A2995 RMK A01 T03720143  RH  026%=      5-min Rain = 0
KBR1 172045Z 20019KT 37/15 A2995 RMK A01 T03720147  RH  026%=      5-min Rain = 0
KBR1 172046Z 21018KT 37/15 A2995 RMK A01 T03740153  RH  027%=      5-min Rain = 0
KBR1 172047Z 21016KT 37/15 A2995 RMK A01 T03730153  RH  027%=      5-min Rain = 0
KBR1 172048Z 20016KT 37/15 A2995 RMK A01 T03710154  RH  028%=      5-min Rain = 0
KBR1 172049Z 22014KT 37/15 A2995 RMK A01 T03710154  RH  028%=      5-min Rain = 0
KBR1 172050Z 21014KT 37/15 A2995 RMK A01 T03700152  RH  027%=      5-min Rain = 0
KBR1 172051Z 20011KT 37/15 A2995 RMK A01 T03650146  RH  027%=      5-min Rain = 0
KBR1 172052Z 20010KT 36/15 A2995 RMK A01 T03590147  RH  028%=      5-min Rain = 0
KBR1 172053Z 19018KT 36/15 A2995 RMK A01 T03580147  RH  028%=      5-min Rain = 0
KBR1 172054Z 20019KT 36/15 A2995 RMK A01 T03570146  RH  028%=      5-min Rain = 0
KBR1 172055Z 22016KT 36/15 A2995 RMK A01 T03550147  RH  029%=      5-min Rain = 0
KBR1 172056Z 22015KT 35/15 A2995 RMK A01 T03530147  RH  029%=      5-min Rain = 0
KBR1 172057Z 21015KT 36/15 A2995 RMK A01 T03550150  RH  030%=      5-min Rain = 0
KBR1 172058Z 20015KT 36/15 A2995 RMK A01 T03630146  RH  028%=      5-min Rain = 0
KBR1 172059Z 20016KT 37/15 A2995 RMK A01 T03730151  RH  027%=      5-min Rain = 0
KBR1 172100Z 21016KT 38/15 A2995 RMK A01 T03750149  RH  026%=      5-min Rain = 0
KBR1 172101Z 20016KT 37/15 A2994 RMK A01 T03690148  RH  027%=      5-min Rain = 0
KBR1 172102Z 20015KT 37/15 A2994 RMK A01 T03670148  RH  027%=      5-min Rain = 0
KBR1 172103Z 19017G23KT 37/15 A2994 RMK A01 T03690148  RH  027%=      5-min Rain = 0
KBR1 172104Z 20020KT 37/14 A2994 RMK A01 T03740137  RH  024%=      5-min Rain = 0
KBR1 172105Z 21018KT 38/15 A2994 RMK A01 T03770145  RH  025%=      5-min Rain = 0
KBR1 172106Z 21017KT 38/14 A2994 RMK A01 T03790143  RH  025%=      5-min Rain = 0
KBR1 172107Z 21019G24KT 38/15 A2994 RMK A01 T03770145  RH  025%=      5-min Rain = 0
KBR1 172108Z 20021KT 38/14 A2994 RMK A01 T03750143  RH  025%=      5-min Rain = 0
KBR1 172109Z 20017G22KT 37/15 A2994 RMK A01 T03730146  RH  026%=      5-min Rain = 0
KBR1 172110Z 19015KT 38/15 A2994 RMK A01 T03760145  RH  026%=      5-min Rain = 0
KBR1 172111Z 20015KT 38/15 A2994 RMK A01 T03770146  RH  025%=      5-min Rain = 0
KBR1 172112Z 20014KT 38/14 A2994 RMK A01 T03760144  RH  025%=      5-min Rain = 0
KBR1 172113Z 21014KT 37/14 A2994 RMK A01 T03720143  RH  026%=      5-min Rain = 0
KBR1 172114Z 20015G20KT 37/14 A2994 RMK A01 T03700144  RH  026%=      5-min Rain = 0
KBR1 172115Z 19019KT 37/15 A2994 RMK A01 T03710145  RH  026%=      5-min Rain = 0
KBR1 172116Z 21018KT 37/14 A2994 RMK A01 T03720140  RH  025%=      5-min Rain = 0
KBR1 172117Z 21016G21KT 37/14 A2994 RMK A01 T03740137  RH  024%=      5-min Rain = 0
KBR1 172118Z 21017KT 38/14 A2994 RMK A01 T03750140  RH  025%=      5-min Rain = 0
KBR1 172119Z 20017KT 38/14 A2994 RMK A01 T03770138  RH  024%=      5-min Rain = 0
KBR1 172120Z 20017KT 38/14 A2994 RMK A01 T03770136  RH  024%=      5-min Rain = 0
KBR1 172121Z 21018KT 38/13 A2994 RMK A01 T03780134  RH  023%=      5-min Rain = 0
KBR1 172122Z 21017KT 38/13 A2994 RMK A01 T03770133  RH  023%=      5-min Rain = 0
KBR1 172123Z 21016KT 37/13 A2994 RMK A01 T03740130  RH  023%=      5-min Rain = 0
KBR1 172124Z 22018KT 37/13 A2994 RMK A01 T03740132  RH  024%=      5-min Rain = 0
KBR1 172125Z 22016KT 38/14 A2994 RMK A01 T03770136  RH  024%=      5-min Rain = 0
KBR1 172126Z 21017KT 38/14 A2994 RMK A01 T03810141  RH  024%=      5-min Rain = 0
KBR1 172127Z 19018KT 38/14 A2994 RMK A01 T03820137  RH  023%=      5-min Rain = 0
KBR1 172128Z 18017KT 38/14 A2994 RMK A01 T03790139  RH  024%=      5-min Rain = 0
KBR1 172129Z 20014G19KT 38/14 A2994 RMK A01 T03770136  RH  024%=      5-min Rain = 0
KBR1 172130Z 21014KT 37/14 A2994 RMK A01 T03740136  RH  024%=      5-min Rain = 0
KBR1 172131Z 20014G20KT 37/14 A2994 RMK A01 T03730135  RH  024%=      5-min Rain = 0
KBR1 172132Z 20014G20KT 37/14 A2994 RMK A01 T03690136  RH  025%=      5-min Rain = 0
KBR1 172133Z 20013G19KT 37/14 A2994 RMK A01 T03670137  RH  025%=      5-min Rain = 0
KBR1 172134Z 21016KT 37/14 A2994 RMK A01 T03710140  RH  025%=      5-min Rain = 0
KBR1 172135Z 21015KT 37/14 A2994 RMK A01 T03700139  RH  025%=      5-min Rain = 0
KBR1 172136Z 21011KT 37/14 A2994 RMK A01 T03670140  RH  026%=      5-min Rain = 0
KBR1 172137Z 21013KT 37/14 A2994 RMK A01 T03670141  RH  026%=      5-min Rain = 0
KBR1 172138Z 20013G18KT 37/14 A2994 RMK A01 T03720144  RH  026%=      5-min Rain = 0
KBR1 172139Z 21019G25KT 38/14 A2993 RMK A01 T03770139  RH  024%=      5-min Rain = 0
KBR1 172140Z 21022KT 38/14 A2993 RMK A01 T03770137  RH  024%=      5-min Rain = 0
KBR1 172141Z 19020KT 37/14 A2993 RMK A01 T03730135  RH  024%=      5-min Rain = 0
KBR1 172142Z 18016KT 37/13 A2994 RMK A01 T03660134  RH  025%=      5-min Rain = 0
KBR1 172143Z 20016G22KT 36/13 A2993 RMK A01 T03620133  RH  025%=      5-min Rain = 0
KBR1 172144Z 19019KT 36/13 A2993 RMK A01 T03640134  RH  025%=      5-min Rain = 0
KBR1 172145Z 19016KT 37/13 A2993 RMK A01 T03680134  RH  025%=      5-min Rain = 0
KBR1 172146Z 19019G24KT 37/14 A2993 RMK A01 T03700135  RH  025%=      5-min Rain = 0
KBR1 172147Z 20021KT 37/14 A2993 RMK A01 T03710137  RH  025%=      5-min Rain = 0
KBR1 172148Z 20018KT 37/13 A2993 RMK A01 T03670133  RH  025%=      5-min Rain = 0
KBR1 172149Z 19014KT 36/13 A2993 RMK A01 T03620132  RH  025%=      5-min Rain = 0
KBR1 172150Z 18013KT 36/13 A2993 RMK A01 T03590134  RH  026%=      5-min Rain = 0
KBR1 172151Z 20017G27KT 36/14 A2993 RMK A01 T03630141  RH  027%=      5-min Rain = 0
KBR1 172152Z 20021KT 37/15 A2993 RMK A01 T03720146  RH  026%=      5-min Rain = 0
KBR1 172153Z 22020KT 37/14 A2993 RMK A01 T03730144  RH  026%=      5-min Rain = 0
KBR1 172154Z 22019KT 37/15 A2993 RMK A01 T03710145  RH  026%=      5-min Rain = 0
KBR1 172155Z 20023G30KT 37/15 A2993 RMK A01 T03700146  RH  026%=      5-min Rain = 0
KBR1 172156Z 19024KT 37/15 A2993 RMK A01 T03700146  RH  026%=      5-min Rain = 0
KBR1 172157Z 19022KT 37/15 A2993 RMK A01 T03700146  RH  026%=      5-min Rain = 0
KBR1 172158Z 19021KT 37/15 A2993 RMK A01 T03720145  RH  026%=      5-min Rain = 0
KBR1 172159Z 19016KT 37/15 A2993 RMK A01 T03720145  RH  026%=      5-min Rain = 0
KBR1 172200Z 18017KT 37/14 A2993 RMK A01 T03720144  RH  026%=      5-min Rain = 0
KBR1 172201Z 18021G26KT 37/14 A2993 RMK A01 T03690142  RH  026%=      5-min Rain = 0
KBR1 172202Z 18020G27KT 37/14 A2993 RMK A01 T03680142  RH  026%=      5-min Rain = 0
KBR1 172203Z 19018KT 37/14 A2993 RMK A01 T03700143  RH  026%=      5-min Rain = 0
KBR1 172204Z 19021KT 37/14 A2992 RMK A01 T03710141  RH  025%=      5-min Rain = 0
KBR1 172205Z 19020KT 37/14 A2993 RMK A01 T03710142  RH  026%=      5-min Rain = 0
KBR1 172206Z 19015G20KT 37/14 A2993 RMK A01 T03730142  RH  025%=      5-min Rain = 0
KBR1 172207Z 17012KT 37/14 A2993 RMK A01 T03730143  RH  025%=      5-min Rain = 0
KBR1 172208Z 17014KT 38/14 A2993 RMK A01 T03750142  RH  025%=      5-min Rain = 0
KBR1 172209Z 19017G22KT 38/14 A2993 RMK A01 T03750142  RH  025%=      5-min Rain = 0
KBR1 172210Z 19014KT 38/14 A2993 RMK A01 T03760143  RH  025%=      5-min Rain = 0
KBR1 172211Z 21019KT 38/14 A2992 RMK A01 T03790143  RH  025%=      5-min Rain = 0
KBR1 172212Z 20016KT 38/14 A2992 RMK A01 T03770139  RH  024%=      5-min Rain = 0
KBR1 172213Z 20017G22KT 37/14 A2992 RMK A01 T03740141  RH  025%=      5-min Rain = 0
KBR1 172214Z 20020G25KT 38/14 A2992 RMK A01 T03760142  RH  025%=      5-min Rain = 0
KBR1 172215Z 21018KT 37/14 A2992 RMK A01 T03740139  RH  025%=      5-min Rain = 0
KBR1 172216Z 18017G22KT 37/14 A2992 RMK A01 T03720142  RH  025%=      5-min Rain = 0
KBR1 172217Z 19020G26KT 38/14 A2992 RMK A01 T03750144  RH  025%=      5-min Rain = 0
KBR1 172218Z 19022KT 38/14 A2992 RMK A01 T03780140  RH  024%=      5-min Rain = 0
KBR1 172219Z 19025G31KT 38/14 A2992 RMK A01 T03770140  RH  024%=      5-min Rain = 0
KBR1 172220Z 20019G24KT 38/14 A2992 RMK A01 T03760140  RH  025%=      5-min Rain = 0
KBR1 172221Z 19020KT 38/14 A2992 RMK A01 T03760144  RH  025%=      5-min Rain = 0
KBR1 172222Z 18024KT 38/14 A2992 RMK A01 T03770142  RH  025%=      5-min Rain = 0
KBR1 172223Z 18023KT 37/14 A2992 RMK A01 T03730140  RH  025%=      5-min Rain = 0
KBR1 172224Z 18020KT 37/14 A2992 RMK A01 T03710140  RH  025%=      5-min Rain = 0
KBR1 172225Z 18020G26KT 37/14 A2992 RMK A01 T03700140  RH  025%=      5-min Rain = 0
KBR1 172226Z 19016KT 37/14 A2992 RMK A01 T03700140  RH  025%=      5-min Rain = 0
KBR1 172227Z 18013KT 37/14 A2992 RMK A01 T03690139  RH  025%=      5-min Rain = 0
KBR1 172228Z 16015G20KT 37/14 A2992 RMK A01 T03700141  RH  026%=      5-min Rain = 0
KBR1 172229Z 19015G20KT 37/14 A2992 RMK A01 T03700140  RH  026%=      5-min Rain = 0
KBR1 172230Z 19016KT 37/14 A2992 RMK A01 T03710143  RH  026%=      5-min Rain = 0
KBR1 172231Z 19021KT 38/14 A2992 RMK A01 T03760140  RH  025%=      5-min Rain = 0
KBR1 172232Z 18021KT 38/14 A2991 RMK A01 T03750138  RH  024%=      5-min Rain = 0
KBR1 172233Z 19018KT 38/14 A2992 RMK A01 T03760137  RH  024%=      5-min Rain = 0
KBR1 172234Z 20019G24KT 38/14 A2991 RMK A01 T03760136  RH  024%=      5-min Rain = 0
KBR1 172235Z 20021KT 37/13 A2991 RMK A01 T03740134  RH  024%=      5-min Rain = 0
KBR1 172236Z 20019KT 37/13 A2992 RMK A01 T03720134  RH  024%=      5-min Rain = 0
KBR1 172237Z 20018KT 37/13 A2992 RMK A01 T03730133  RH  024%=      5-min Rain = 0
KBR1 172238Z 20019KT 37/13 A2992 RMK A01 T03730132  RH  024%=      5-min Rain = 0
KBR1 172239Z 20018KT 37/13 A2992 RMK A01 T03730134  RH  024%=      5-min Rain = 0
KBR1 172240Z 21014G20KT 38/14 A2991 RMK A01 T03750135  RH  024%=      5-min Rain = 0
KBR1 172241Z 22016KT 38/13 A2991 RMK A01 T03770134  RH  024%=      5-min Rain = 0
KBR1 172242Z 19018KT 37/14 A2992 RMK A01 T03740136  RH  024%=      5-min Rain = 0
KBR1 172243Z 20018KT 37/14 A2991 RMK A01 T03740137  RH  024%=      5-min Rain = 0
KBR1 172244Z 22014G19KT 37/14 A2991 RMK A01 T03720135  RH  024%=      5-min Rain = 0
KBR1 172245Z 20020G25KT 37/14 A2991 RMK A01 T03720137  RH  025%=      5-min Rain = 0
KBR1 172246Z 19016KT 38/14 A2991 RMK A01 T03750138  RH  025%=      5-min Rain = 0
KBR1 172247Z 19014KT 38/14 A2991 RMK A01 T03770140  RH  024%=      5-min Rain = 0
KBR1 172248Z 18014KT 38/14 A2991 RMK A01 T03810140  RH  024%=      5-min Rain = 0
KBR1 172249Z 18019G25KT 38/14 A2991 RMK A01 T03800137  RH  024%=      5-min Rain = 0
KBR1 172250Z 18018KT 38/14 A2991 RMK A01 T03750136  RH  024%=      5-min Rain = 0
KBR1 172251Z 18017KT 37/14 A2991 RMK A01 T03720138  RH  025%=      5-min Rain = 0
KBR1 172252Z 19020G27KT 37/14 A2991 RMK A01 T03730139  RH  025%=      5-min Rain = 0
KBR1 172253Z 19014G19KT 37/14 A2991 RMK A01 T03740138  RH  025%=      5-min Rain = 0
KBR1 172254Z 19017KT 37/14 A2991 RMK A01 T03740139  RH  025%=      5-min Rain = 0
KBR1 172255Z 19014KT 37/14 A2991 RMK A01 T03710136  RH  025%=      5-min Rain = 0
KBR1 172256Z 17014KT 37/14 A2991 RMK A01 T03710136  RH  025%=      5-min Rain = 0
KBR1 172257Z 19022G27KT 37/14 A2991 RMK A01 T03720136  RH  024%=      5-min Rain = 0
KBR1 172258Z 20021KT 37/14 A2991 RMK A01 T03730137  RH  025%=      5-min Rain = 0
KBR1 172259Z 19019KT 37/14 A2991 RMK A01 T03720137  RH  025%=      5-min Rain = 0
KBR1 172300Z 19017KT 37/14 A2991 RMK A01 T03700137  RH  025%=      5-min Rain = 0
KBR1 172301Z 20014KT 37/14 A2991 RMK A01 T03680136  RH  025%=      5-min Rain = 0
KBR1 172302Z 18016KT 37/14 A2991 RMK A01 T03690139  RH  025%=      5-min Rain = 0
KBR1 172303Z 18016KT 37/14 A2991 RMK A01 T03720138  RH  025%=      5-min Rain = 0
KBR1 172304Z 19013KT 37/14 A2991 RMK A01 T03720138  RH  025%=      5-min Rain = 0
KBR1 172305Z 19018KT 37/14 A2991 RMK A01 T03740138  RH  025%=      5-min Rain = 0
KBR1 172306Z 19015G21KT 37/14 A299 RMK A01 T03730137  RH  025%=      5-min Rain = 0
KBR1 172307Z 18020KT 37/14 A299 RMK A01 T03720136  RH  025%=      5-min Rain = 0
KBR1 172308Z 18018KT 37/14 A2991 RMK A01 T03730136  RH  024%=      5-min Rain = 0
KBR1 172309Z 19016G22KT 37/14 A299 RMK A01 T03730136  RH  024%=      5-min Rain = 0
KBR1 172310Z 19020G26KT 38/14 A299 RMK A01 T03750135  RH  024%=      5-min Rain = 0
KBR1 172311Z 19018KT 37/13 A299 RMK A01 T03730133  RH  024%=      5-min Rain = 0
KBR1 172312Z 19019KT 37/13 A299 RMK A01 T03730133  RH  024%=      5-min Rain = 0
KBR1 172313Z 17021KT 37/13 A299 RMK A01 T03720132  RH  024%=      5-min Rain = 0
KBR1 172314Z 17021KT 37/13 A299 RMK A01 T03720132  RH  024%=      5-min Rain = 0
KBR1 172315Z 18019KT 37/13 A299 RMK A01 T03710132  RH  024%=      5-min Rain = 0
KBR1 172316Z 19018KT 37/13 A299 RMK A01 T03710133  RH  024%=      5-min Rain = 0
KBR1 172317Z 18017KT 37/13 A2991 RMK A01 T03710132  RH  024%=      5-min Rain = 0
KBR1 172318Z 19017KT 37/14 A299 RMK A01 T03730135  RH  024%=      5-min Rain = 0
KBR1 172319Z 19019KT 38/14 A299 RMK A01 T03750135  RH  024%=      5-min Rain = 0
KBR1 172320Z 18016KT 37/14 A299 RMK A01 T03730135  RH  024%=      5-min Rain = 0
KBR1 172321Z 18020KT 37/13 A2991 RMK A01 T03720134  RH  024%=      5-min Rain = 0
KBR1 172322Z 19017KT 37/13 A299 RMK A01 T03710134  RH  024%=      5-min Rain = 0
KBR1 172323Z 20018KT 37/14 A299 RMK A01 T03700136  RH  025%=      5-min Rain = 0
KBR1 172324Z 18017KT 37/14 A299 RMK A01 T03710135  RH  025%=      5-min Rain = 0
KBR1 172325Z 18017KT 37/13 A299 RMK A01 T03700132  RH  024%=      5-min Rain = 0
KBR1 172326Z 18013KT 37/13 A2991 RMK A01 T03670134  RH  025%=      5-min Rain = 0
KBR1 172327Z 18015KT 37/13 A299 RMK A01 T03690134  RH  025%=      5-min Rain = 0
KBR1 172328Z 18014KT 37/13 A299 RMK A01 T03680132  RH  024%=      5-min Rain = 0
KBR1 172329Z 19017KT 37/13 A299 RMK A01 T03680133  RH  025%=      5-min Rain = 0
KBR1 172330Z 19016KT 37/13 A299 RMK A01 T03680132  RH  024%=      5-min Rain = 0
KBR1 172331Z 18017KT 37/13 A299 RMK A01 T03690134  RH  025%=      5-min Rain = 0
KBR1 172332Z 18016KT 37/13 A299 RMK A01 T03690133  RH  024%=      5-min Rain = 0
KBR1 172333Z 17015KT 37/13 A299 RMK A01 T03710133  RH  024%=      5-min Rain = 0
KBR1 172334Z 18015KT 37/13 A299 RMK A01 T03710132  RH  024%=      5-min Rain = 0
KBR1 172335Z 20018KT 37/13 A299 RMK A01 T03710133  RH  024%=      5-min Rain = 0
KBR1 172336Z 20018KT 37/14 A299 RMK A01 T03700136  RH  025%=      5-min Rain = 0
KBR1 172337Z 19019KT 37/14 A299 RMK A01 T03710135  RH  024%=      5-min Rain = 0
KBR1 172338Z 19019KT 37/13 A299 RMK A01 T03690132  RH  024%=      5-min Rain = 0
KBR1 172339Z 19016KT 37/13 A299 RMK A01 T03690132  RH  024%=      5-min Rain = 0
KBR1 172340Z 19015G22KT 37/13 A299 RMK A01 T03680133  RH  025%=      5-min Rain = 0
KBR1 172341Z 19021KT 37/13 A299 RMK A01 T03680131  RH  024%=      5-min Rain = 0
KBR1 172342Z 18017KT 37/13 A299 RMK A01 T03690130  RH  024%=      5-min Rain = 0
KBR1 172343Z 18017KT 37/13 A299 RMK A01 T03680129  RH  024%=      5-min Rain = 0
KBR1 172344Z 19016KT 37/13 A299 RMK A01 T03680130  RH  024%=      5-min Rain = 0
KBR1 172345Z 20015KT 37/13 A299 RMK A01 T03680131  RH  024%=      5-min Rain = 0
KBR1 172346Z 21016KT 37/13 A299 RMK A01 T03690131  RH  024%=      5-min Rain = 0
KBR1 172347Z 20016KT 37/13 A299 RMK A01 T03700132  RH  024%=      5-min Rain = 0
KBR1 172348Z 19015KT 37/13 A299 RMK A01 T03700133  RH  024%=      5-min Rain = 0
KBR1 172349Z 19015KT 37/13 A299 RMK A01 T03700132  RH  024%=      5-min Rain = 0
KBR1 172350Z 19016KT 37/13 A299 RMK A01 T03690131  RH  024%=      5-min Rain = 0
KBR1 172351Z 19014KT 37/13 A299 RMK A01 T03680132  RH  024%=      5-min Rain = 0
KBR1 172352Z 19015KT 37/13 A299 RMK A01 T03680132  RH  024%=      5-min Rain = 0
KBR1 172353Z 19018KT 37/13 A299 RMK A01 T03690133  RH  024%=      5-min Rain = 0
KBR1 172354Z 19017KT 37/13 A299 RMK A01 T03690133  RH  024%=      5-min Rain = 0
KBR1 172355Z 19014KT 37/13 A299 RMK A01 T03680132  RH  025%=      5-min Rain = 0
KBR1 172356Z 19014KT 37/13 A299 RMK A01 T03660131  RH  025%=      5-min Rain = 0
KBR1 172357Z 18017KT 37/13 A299 RMK A01 T03660132  RH  025%=      5-min Rain = 0
KBR1 172358Z 19017KT 37/13 A299 RMK A01 T03700134  RH  024%=      5-min Rain = 0
KBR1 172359Z 19019KT 37/13 A299 RMK A01 T03710131  RH  024%=      5-min Rain = 0
KBR1 180000Z 19015KT 37/13 A299 RMK A01 T03680129  RH  024%=      5-min Rain = 0
KBR1 180001Z 19013KT 37/13 A299 RMK A01 T03670130  RH  024%=      5-min Rain = 0
KBR1 180002Z 17013KT 37/13 A299 RMK A01 T03680129  RH  024%=      5-min Rain = 0
KBR1 180003Z 18014KT 37/13 A299 RMK A01 T03670125  RH  023%=      5-min Rain = 0
KBR1 180004Z 18013KT 37/13 A299 RMK A01 T03660125  RH  024%=      5-min Rain = 0
KBR1 180005Z 19013KT 37/13 A299 RMK A01 T03670128  RH  024%=      5-min Rain = 0
KBR1 180006Z 19020KT 37/13 A299 RMK A01 T03680129  RH  024%=      5-min Rain = 0
KBR1 180007Z 19021KT 37/13 A299 RMK A01 T03660128  RH  024%=      5-min Rain = 0
KBR1 180008Z 19018KT 37/13 A299 RMK A01 T03650128  RH  024%=      5-min Rain = 0
KBR1 180009Z 19018KT 37/13 A299 RMK A01 T03660130  RH  024%=      5-min Rain = 0
KBR1 180010Z 18020KT 37/13 A299 RMK A01 T03670129  RH  024%=      5-min Rain = 0
KBR1 180011Z 19017KT 37/13 A299 RMK A01 T03660129  RH  024%=      5-min Rain = 0
KBR1 180012Z 19016KT 36/13 A299 RMK A01 T03640129  RH  024%=      5-min Rain = 0
KBR1 180013Z 19017KT 37/13 A299 RMK A01 T03650127  RH  024%=      5-min Rain = 0
KBR1 180014Z 18020KT 37/13 A299 RMK A01 T03650127  RH  024%=      5-min Rain = 0
KBR1 180015Z 18018KT 36/13 A299 RMK A01 T03640127  RH  024%=      5-min Rain = 0
KBR1 180016Z 18015KT 36/13 A299 RMK A01 T03630128  RH  024%=      5-min Rain = 0
KBR1 180017Z 19014KT 36/13 A299 RMK A01 T03640128  RH  024%=      5-min Rain = 0
KBR1 180018Z 18015KT 36/13 A299 RMK A01 T03640129  RH  024%=      5-min Rain = 0
KBR1 180019Z 20018KT 36/13 A299 RMK A01 T03640129  RH  024%=      5-min Rain = 0
KBR1 180020Z 20019KT 37/13 A2989 RMK A01 T03650130  RH  024%=      5-min Rain = 0
KBR1 180021Z 20018KT 36/13 A2989 RMK A01 T03640130  RH  025%=      5-min Rain = 0
KBR1 180022Z 19016KT 36/13 A2989 RMK A01 T03640130  RH  025%=      5-min Rain = 0
KBR1 180023Z 19015KT 36/13 A299 RMK A01 T03630130  RH  025%=      5-min Rain = 0
KBR1 180024Z 19016KT 36/13 A299 RMK A01 T03640129  RH  024%=      5-min Rain = 0
KBR1 180025Z 20015KT 36/13 A2989 RMK A01 T03640130  RH  025%=      5-min Rain = 0
KBR1 180026Z 20018KT 37/13 A2989 RMK A01 T03650131  RH  025%=      5-min Rain = 0
KBR1 180027Z 20016KT 36/13 A2989 RMK A01 T03640131  RH  025%=      5-min Rain = 0
KBR1 180028Z 20015KT 36/13 A2989 RMK A01 T03640132  RH  025%=      5-min Rain = 0
KBR1 180029Z 19014KT 36/13 A299 RMK A01 T03640133  RH  025%=      5-min Rain = 0
KBR1 180030Z 20017KT 37/13 A2989 RMK A01 T03660134  RH  025%=      5-min Rain = 0
KBR1 180031Z 20016KT 37/13 A2989 RMK A01 T03650130  RH  025%=      5-min Rain = 0
KBR1 180032Z 19015KT 36/13 A2989 RMK A01 T03640130  RH  025%=      5-min Rain = 0
KBR1 180033Z 20013KT 36/13 A2989 RMK A01 T03630132  RH  025%=      5-min Rain = 0
KBR1 180034Z 19016KT 36/13 A2989 RMK A01 T03630131  RH  025%=      5-min Rain = 0
KBR1 180035Z 20016G25KT 36/13 A2989 RMK A01 T03630134  RH  025%=      5-min Rain = 0
KBR1 180036Z 20020KT 36/14 A2989 RMK A01 T03620136  RH  026%=      5-min Rain = 0
KBR1 180037Z 19017KT 36/14 A2989 RMK A01 T03610137  RH  026%=      5-min Rain = 0
KBR1 180038Z 19019G24KT 36/14 A2989 RMK A01 T03610137  RH  026%=      5-min Rain = 0
KBR1 180039Z 19020KT 36/14 A2989 RMK A01 T03600137  RH  026%=      5-min Rain = 0
KBR1 180040Z 18020KT 36/14 A2989 RMK A01 T03590136  RH  026%=      5-min Rain = 0
KBR1 180041Z 18016KT 36/14 A2989 RMK A01 T03580136  RH  027%=      5-min Rain = 0
KBR1 180042Z 18019KT 36/14 A299 RMK A01 T03580137  RH  027%=      5-min Rain = 0
KBR1 180043Z 18018KT 36/14 A299 RMK A01 T03590136  RH  026%=      5-min Rain = 0
KBR1 180044Z 18015KT 36/14 A299 RMK A01 T03580136  RH  026%=      5-min Rain = 0
KBR1 180045Z 17013KT 36/14 A299 RMK A01 T03580137  RH  027%=      5-min Rain = 0
KBR1 180046Z 18015G21KT 36/14 A299 RMK A01 T03590138  RH  027%=      5-min Rain = 0
KBR1 180047Z 18017KT 36/14 A2989 RMK A01 T03590137  RH  026%=      5-min Rain = 0
KBR1 180048Z 18018KT 36/14 A299 RMK A01 T03580136  RH  026%=      5-min Rain = 0
KBR1 180049Z 18018KT 36/14 A299 RMK A01 T03580135  RH  026%=      5-min Rain = 0
KBR1 180050Z 17020KT 36/14 A2989 RMK A01 T03570135  RH  026%=      5-min Rain = 0
KBR1 180051Z 18017KT 36/14 A2989 RMK A01 T03570136  RH  027%=      5-min Rain = 0
KBR1 180052Z 17017G22KT 36/14 A299 RMK A01 T03560136  RH  027%=      5-min Rain = 0
KBR1 180053Z 18018KT 36/14 A2989 RMK A01 T03560136  RH  027%=      5-min Rain = 0
KBR1 180054Z 18016KT 36/14 A299 RMK A01 T03560137  RH  027%=      5-min Rain = 0
KBR1 180055Z 19017KT 36/14 A299 RMK A01 T03560137  RH  027%=      5-min Rain = 0
KBR1 180056Z 18013KT 36/14 A299 RMK A01 T03550138  RH  027%=      5-min Rain = 0
KBR1 180057Z 18016KT 36/14 A299 RMK A01 T03550137  RH  027%=      5-min Rain = 0
KBR1 180058Z 18017KT 36/14 A299 RMK A01 T03550137  RH  027%=      5-min Rain = 0
KBR1 180059Z 18018KT 35/14 A299 RMK A01 T03540137  RH  027%=      5-min Rain = 0
KBR1 180100Z 18018KT 35/14 A299 RMK A01 T03540137  RH  027%=      5-min Rain = 0
KBR1 180101Z 17018KT 35/14 A299 RMK A01 T03540137  RH  027%=      5-min Rain = 0
KBR1 180102Z 18017KT 35/14 A299 RMK A01 T03530137  RH  027%=      5-min Rain = 0
KBR1 180103Z 17018KT 35/14 A299 RMK A01 T03530138  RH  028%=      5-min Rain = 0
KBR1 180104Z 17018KT 35/14 A299 RMK A01 T03520137  RH  028%=      5-min Rain = 0
KBR1 180105Z 17019KT 35/14 A299 RMK A01 T03520138  RH  028%=      5-min Rain = 0
KBR1 180106Z 18019KT 35/14 A299 RMK A01 T03520138  RH  028%=      5-min Rain = 0
KBR1 180107Z 18017KT 35/14 A299 RMK A01 T03510138  RH  028%=      5-min Rain = 0
KBR1 180108Z 17017KT 35/14 A299 RMK A01 T03510139  RH  028%=      5-min Rain = 0
KBR1 180109Z 17016KT 35/14 A299 RMK A01 T03500139  RH  028%=      5-min Rain = 0
KBR1 180110Z 18017KT 35/14 A299 RMK A01 T03500139  RH  028%=      5-min Rain = 0
KBR1 180111Z 18017KT 35/14 A299 RMK A01 T03500139  RH  028%=      5-min Rain = 0
KBR1 180112Z 18017KT 35/14 A299 RMK A01 T03490138  RH  028%=      5-min Rain = 0
KBR1 180113Z 18014KT 35/14 A299 RMK A01 T03490139  RH  028%=      5-min Rain = 0
KBR1 180114Z 18014KT 35/14 A299 RMK A01 T03480139  RH  029%=      5-min Rain = 0
KBR1 180115Z 18015KT 35/14 A299 RMK A01 T03480138  RH  028%=      5-min Rain = 0
KBR1 180116Z 18014KT 35/14 A299 RMK A01 T03480138  RH  028%=      5-min Rain = 0
KBR1 180117Z 18014KT 35/14 A299 RMK A01 T03470138  RH  028%=      5-min Rain = 0
KBR1 180118Z 18013KT 35/14 A299 RMK A01 T03470139  RH  029%=      5-min Rain = 0
KBR1 180119Z 19013KT 35/14 A299 RMK A01 T03460138  RH  029%=      5-min Rain = 0
KBR1 180120Z 18013KT 34/14 A299 RMK A01 T03440139  RH  029%=      5-min Rain = 0
KBR1 180121Z 18016KT 34/14 A299 RMK A01 T03430138  RH  029%=      5-min Rain = 0
KBR1 180122Z 19016KT 34/14 A299 RMK A01 T03430138  RH  029%=      5-min Rain = 0
KBR1 180123Z 18017KT 34/14 A299 RMK A01 T03430138  RH  029%=      5-min Rain = 0
KBR1 180124Z 18015KT 34/14 A299 RMK A01 T03420138  RH  029%=      5-min Rain = 0
KBR1 180125Z 18013KT 34/14 A299 RMK A01 T03410138  RH  030%=      5-min Rain = 0
KBR1 180126Z 18016KT 34/14 A299 RMK A01 T03400139  RH  030%=      5-min Rain = 0
KBR1 180127Z 19017KT 34/14 A299 RMK A01 T03390140  RH  030%=      5-min Rain = 0
KBR1 180128Z 18017KT 34/14 A299 RMK A01 T03390140  RH  030%=      5-min Rain = 0
KBR1 180129Z 17013KT 34/14 A299 RMK A01 T03390140  RH  030%=      5-min Rain = 0
KBR1 180130Z 18014KT 34/14 A299 RMK A01 T03380140  RH  030%=      5-min Rain = 0
KBR1 180131Z 17013KT 34/14 A299 RMK A01 T03380140  RH  030%=      5-min Rain = 0
KBR1 180132Z 17013KT 34/14 A299 RMK A01 T03370140  RH  031%=      5-min Rain = 0
KBR1 180133Z 17014KT 34/14 A299 RMK A01 T03370140  RH  030%=      5-min Rain = 0
KBR1 180134Z 18014KT 34/14 A299 RMK A01 T03360139  RH  030%=      5-min Rain = 0
KBR1 180135Z 17013KT 34/14 A299 RMK A01 T03370139  RH  030%=      5-min Rain = 0
KBR1 180136Z 18013KT 34/14 A299 RMK A01 T03360139  RH  030%=      5-min Rain = 0
KBR1 180137Z 17013KT 34/14 A299 RMK A01 T03350139  RH  031%=      5-min Rain = 0
KBR1 180138Z 18014KT 33/14 A299 RMK A01 T03340138  RH  031%=      5-min Rain = 0
KBR1 180139Z 17015KT 33/14 A299 RMK A01 T03340139  RH  031%=      5-min Rain = 0
KBR1 180140Z 18015KT 33/14 A299 RMK A01 T03340138  RH  031%=      5-min Rain = 0
KBR1 180141Z 18014KT 33/14 A2991 RMK A01 T03340138  RH  031%=      5-min Rain = 0
KBR1 180142Z 18015KT 33/14 A2991 RMK A01 T03340138  RH  031%=      5-min Rain = 0
KBR1 180143Z 18014KT 33/14 A2991 RMK A01 T03330138  RH  031%=      5-min Rain = 0
KBR1 180144Z 18014KT 33/14 A2991 RMK A01 T03330138  RH  031%=      5-min Rain = 0
KBR1 180145Z 18013KT 33/14 A2991 RMK A01 T03330138  RH  031%=      5-min Rain = 0
KBR1 180146Z 18012KT 33/14 A2991 RMK A01 T03320138  RH  031%=      5-min Rain = 0
KBR1 180147Z 18014KT 33/14 A2991 RMK A01 T03310138  RH  031%=      5-min Rain = 0
KBR1 180148Z 18013KT 33/14 A2991 RMK A01 T03310138  RH  031%=      5-min Rain = 0
KBR1 180149Z 18013KT 33/14 A2991 RMK A01 T03310138  RH  031%=      5-min Rain = 0
KBR1 180150Z 18014KT 33/14 A2991 RMK A01 T03300137  RH  031%=      5-min Rain = 0
KBR1 180151Z 18014KT 33/14 A2991 RMK A01 T03300137  RH  031%=      5-min Rain = 0
KBR1 180152Z 18014KT 33/14 A2991 RMK A01 T03300137  RH  031%=      5-min Rain = 0
KBR1 180153Z 18013KT 33/14 A2991 RMK A01 T03310137  RH  031%=      5-min Rain = 0
KBR1 180154Z 18014KT 33/14 A2991 RMK A01 T03300137  RH  031%=      5-min Rain = 0
KBR1 180155Z 18014KT 33/14 A2991 RMK A01 T03300137  RH  031%=      5-min Rain = 0
KBR1 180156Z 18014KT 33/14 A2991 RMK A01 T03290136  RH  031%=      5-min Rain = 0
KBR1 180157Z 18015KT 33/14 A2991 RMK A01 T03290137  RH  031%=      5-min Rain = 0
KBR1 180158Z 18015KT 33/14 A2991 RMK A01 T03290136  RH  031%=      5-min Rain = 0
KBR1 180159Z 18014KT 33/14 A2992 RMK A01 T03290137  RH  031%=      5-min Rain = 0
KBR1 180200Z 18014KT 33/14 A2992 RMK A01 T03280137  RH  031%=      5-min Rain = 0
KBR1 180201Z 18015KT 33/14 A2992 RMK A01 T03280138  RH  032%=      5-min Rain = 0
KBR1 180202Z 18014KT 33/14 A2992 RMK A01 T03270138  RH  032%=      5-min Rain = 0
KBR1 180203Z 19015KT 33/14 A2992 RMK A01 T03270138  RH  032%=      5-min Rain = 0
KBR1 180204Z 18013KT 33/14 A2992 RMK A01 T03270139  RH  032%=      5-min Rain = 0
KBR1 180205Z 18012KT 33/14 A2992 RMK A01 T03260139  RH  032%=      5-min Rain = 0
KBR1 180206Z 18012KT 33/14 A2992 RMK A01 T03250139  RH  032%=      5-min Rain = 0
KBR1 180207Z 18011KT 32/14 A2992 RMK A01 T03240139  RH  033%=      5-min Rain = 0
KBR1 180208Z 18012KT 32/14 A2992 RMK A01 T03240139  RH  033%=      5-min Rain = 0
KBR1 180209Z 18013KT 32/14 A2992 RMK A01 T03230139  RH  033%=      5-min Rain = 0
KBR1 180210Z 18011KT 32/14 A2992 RMK A01 T03240139  RH  033%=      5-min Rain = 0
KBR1 180211Z 18011KT 32/14 A2992 RMK A01 T03230139  RH  033%=      5-min Rain = 0
KBR1 180212Z 18011KT 32/14 A2992 RMK A01 T03220139  RH  033%=      5-min Rain = 0
KBR1 180213Z 18010KT 32/14 A2992 RMK A01 T03210139  RH  033%=      5-min Rain = 0
KBR1 180214Z 18011KT 32/14 A2992 RMK A01 T03210139  RH  033%=      5-min Rain = 0
KBR1 180215Z 18011KT 32/14 A2992 RMK A01 T03200139  RH  033%=      5-min Rain = 0
KBR1 180216Z 17012KT 32/14 A2992 RMK A01 T03200138  RH  033%=      5-min Rain = 0
KBR1 180217Z 18011KT 32/14 A2992 RMK A01 T03210138  RH  033%=      5-min Rain = 0
KBR1 180218Z 18010KT 32/14 A2992 RMK A01 T03200139  RH  033%=      5-min Rain = 0
KBR1 180219Z 18010KT 32/14 A2992 RMK A01 T03190139  RH  033%=      5-min Rain = 0
KBR1 180220Z 18010KT 32/14 A2993 RMK A01 T03190139  RH  034%=      5-min Rain = 0
KBR1 180221Z 18012KT 32/14 A2993 RMK A01 T03170139  RH  034%=      5-min Rain = 0
KBR1 180222Z 18011KT 32/14 A2993 RMK A01 T03180138  RH  034%=      5-min Rain = 0
KBR1 180223Z 18011KT 32/14 A2993 RMK A01 T03180139  RH  034%=      5-min Rain = 0
KBR1 180224Z 18011KT 32/14 A2993 RMK A01 T03180139  RH  034%=      5-min Rain = 0
KBR1 180225Z 18011KT 32/14 A2993 RMK A01 T03180139  RH  034%=      5-min Rain = 0
KBR1 180226Z 18009KT 32/14 A2993 RMK A01 T03180139  RH  034%=      5-min Rain = 0
KBR1 180227Z 18009KT 32/14 A2993 RMK A01 T03170139  RH  034%=      5-min Rain = 0
KBR1 180228Z 17009KT 32/14 A2993 RMK A01 T03160139  RH  034%=      5-min Rain = 0
KBR1 180229Z 18009KT 32/14 A2993 RMK A01 T03150139  RH  034%=      5-min Rain = 0
KBR1 180230Z 18009KT 31/14 A2993 RMK A01 T03140140  RH  035%=      5-min Rain = 0
KBR1 180231Z 18010KT 31/14 A2993 RMK A01 T03130139  RH  035%=      5-min Rain = 0
KBR1 180232Z 18010KT 31/14 A2993 RMK A01 T03130139  RH  035%=      5-min Rain = 0
KBR1 180233Z 18009KT 31/14 A2993 RMK A01 T03140140  RH  035%=      5-min Rain = 0
KBR1 180234Z 18009KT 31/14 A2994 RMK A01 T03140139  RH  035%=      5-min Rain = 0
KBR1 180235Z 18008KT 32/14 A2994 RMK A01 T03150140  RH  035%=      5-min Rain = 0
KBR1 180236Z 18009KT 31/14 A2994 RMK A01 T03140140  RH  035%=      5-min Rain = 0
KBR1 180237Z 18009KT 31/14 A2994 RMK A01 T03140139  RH  035%=      5-min Rain = 0
KBR1 180238Z 18007KT 31/14 A2994 RMK A01 T03140140  RH  035%=      5-min Rain = 0
KBR1 180239Z 18007KT 31/14 A2994 RMK A01 T03140140  RH  035%=      5-min Rain = 0
KBR1 180240Z 19007KT 31/14 A2994 RMK A01 T03140140  RH  035%=      5-min Rain = 0
KBR1 180241Z 19006KT 31/14 A2995 RMK A01 T03130140  RH  035%=      5-min Rain = 0
KBR1 180242Z 20004KT 31/14 A2995 RMK A01 T03140140  RH  035%=      5-min Rain = 0
KBR1 180243Z 23002KT 31/14 A2995 RMK A01 T03140140  RH  035%=      5-min Rain = 0
KBR1 180244Z 29001KT 31/14 A2996 RMK A01 T03140141  RH  035%=      5-min Rain = 0
KBR1 180245Z 33004KT 31/14 A2996 RMK A01 T03130141  RH  035%=      5-min Rain = 0
KBR1 180246Z 33008KT 31/14 A2996 RMK A01 T03120142  RH  036%=      5-min Rain = 0
KBR1 180247Z 35010KT 31/14 A2997 RMK A01 T03120143  RH  036%=      5-min Rain = 0
KBR1 180248Z 35011KT 31/14 A2997 RMK A01 T03110143  RH  036%=      5-min Rain = 0
KBR1 180249Z 36010KT 31/14 A2997 RMK A01 T03100141  RH  036%=      5-min Rain = 0
KBR1 180250Z 36009KT 31/14 A2997 RMK A01 T03080137  RH  035%=      5-min Rain = 0
KBR1 180251Z 34010KT 31/13 A2997 RMK A01 T03080134  RH  035%=      5-min Rain = 0
KBR1 180252Z 35009KT 31/13 A2997 RMK A01 T03080133  RH  034%=      5-min Rain = 0
KBR1 180253Z 02007KT 31/13 A2997 RMK A01 T03080134  RH  035%=      5-min Rain = 0
KBR1 180254Z 03007KT 31/13 A2997 RMK A01 T03070134  RH  035%=      5-min Rain = 0
KBR1 180255Z 03008KT 31/13 A2997 RMK A01 T03060133  RH  035%=      5-min Rain = 0
KBR1 180256Z 02008KT 31/13 A2997 RMK A01 T03060132  RH  035%=      5-min Rain = 0
KBR1 180257Z 02011KT 31/13 A2997 RMK A01 T03080134  RH  035%=      5-min Rain = 0
KBR1 180258Z 03007KT 31/13 A2998 RMK A01 T03140134  RH  033%=      5-min Rain = 0
KBR1 180259Z 01009KT 32/13 A2998 RMK A01 T03160134  RH  033%=      5-min Rain = 0
KBR1 180300Z 00012KT 32/14 A2998 RMK A01 T03170135  RH  033%=      5-min Rain = 0
KBR1 180301Z 01010KT 32/13 A2998 RMK A01 T03170134  RH  033%=      5-min Rain = 0
KBR1 180302Z 36006KT 32/13 A2998 RMK A01 T03160132  RH  033%=      5-min Rain = 0
KBR1 180303Z 34005KT 32/13 A2998 RMK A01 T03150132  RH  033%=      5-min Rain = 0
KBR1 180304Z 29003KT 31/13 A2998 RMK A01 T03140133  RH  033%=      5-min Rain = 0
KBR1 180305Z 00006KT 31/14 A2998 RMK A01 T03140135  RH  034%=      5-min Rain = 0
KBR1 180306Z 35008KT 32/14 A2998 RMK A01 T03150136  RH  034%=      5-min Rain = 0
KBR1 180307Z 01004KT 32/14 A2998 RMK A01 T03180135  RH  033%=      5-min Rain = 0
KBR1 180308Z 01006KT 32/14 A2998 RMK A01 T03190136  RH  033%=      5-min Rain = 0
KBR1 180309Z 04006KT 32/14 A2998 RMK A01 T03200137  RH  033%=      5-min Rain = 0
KBR1 180310Z 05004KT 32/14 A2998 RMK A01 T03190136  RH  033%=      5-min Rain = 0
KBR1 180311Z 09003KT 32/14 A2999 RMK A01 T03190136  RH  033%=      5-min Rain = 0
KBR1 180312Z 03003KT 32/14 A2999 RMK A01 T03190137  RH  033%=      5-min Rain = 0
KBR1 180313Z 04004KT 32/14 A2999 RMK A01 T03180137  RH  033%=      5-min Rain = 0
KBR1 180314Z 03003KT 32/14 A2999 RMK A01 T03170136  RH  033%=      5-min Rain = 0
KBR1 180315Z 03006KT 32/14 A2999 RMK A01 T03150136  RH  034%=      5-min Rain = 0
KBR1 180316Z 03010KT 31/13 A30 RMK A01 T03130133  RH  033%=      5-min Rain = 0
KBR1 180317Z 03011KT 31/13 A30 RMK A01 T03090131  RH  034%=      5-min Rain = 0
KBR1 180318Z 03012KT 31/13 A30 RMK A01 T03060130  RH  034%=      5-min Rain = 0
KBR1 180319Z 01011KT 30/13 A30 RMK A01 T03030129  RH  034%=      5-min Rain = 0
KBR1 180320Z 01011KT 30/13 A30 RMK A01 T03000128  RH  035%=      5-min Rain = 0
KBR1 180321Z 01013KT 30/13 A30 RMK A01 T02960128  RH  035%=      5-min Rain = 0
KBR1 180322Z 02013KT 29/13 A30 RMK A01 T02930128  RH  036%=      5-min Rain = 0
KBR1 180323Z 02012KT 29/13 A30 RMK A01 T02910128  RH  036%=      5-min Rain = 0
KBR1 180324Z 01010KT 29/13 A30 RMK A01 T02900128  RH  037%=      5-min Rain = 0
KBR1 180325Z 01008KT 29/13 A30 RMK A01 T02900128  RH  037%=      5-min Rain = 0
KBR1 180326Z 00010KT 29/13 A30 RMK A01 T02890128  RH  037%=      5-min Rain = 0
KBR1 180327Z 36009KT 29/13 A30 RMK A01 T02880128  RH  037%=      5-min Rain = 0
KBR1 180328Z 02012KT 29/13 A30 RMK A01 T02880129  RH  038%=      5-min Rain = 0
KBR1 180329Z 02010KT 29/13 A30 RMK A01 T02880130  RH  038%=      5-min Rain = 0
KBR1 180330Z 02012KT 29/13 A30 RMK A01 T02880130  RH  038%=      5-min Rain = 0
KBR1 180331Z 01010KT 29/13 A30 RMK A01 T02880130  RH  038%=      5-min Rain = 0
KBR1 180332Z 01008KT 29/13 A30 RMK A01 T02870130  RH  038%=      5-min Rain = 0
KBR1 180333Z 01007KT 29/13 A30 RMK A01 T02860130  RH  038%=      5-min Rain = 0
KBR1 180334Z 01006KT 28/13 A30 RMK A01 T02840131  RH  039%=      5-min Rain = 0
KBR1 180335Z 03005KT 28/13 A30 RMK A01 T02840130  RH  039%=      5-min Rain = 0
KBR1 180336Z 03005KT 28/13 A30 RMK A01 T02840130  RH  039%=      5-min Rain = 0
KBR1 180337Z 01005KT 28/13 A30 RMK A01 T02840131  RH  039%=      5-min Rain = 0
KBR1 180338Z 03006KT 28/13 A3001 RMK A01 T02830132  RH  040%=      5-min Rain = 0
KBR1 180339Z 02007KT 28/13 A3001 RMK A01 T02810132  RH  040%=      5-min Rain = 0
KBR1 180340Z 02007KT 28/13 A3001 RMK A01 T02810132  RH  040%=      5-min Rain = 0
KBR1 180341Z 01008KT 28/13 A3001 RMK A01 T02810131  RH  040%=      5-min Rain = 0
KBR1 180342Z 02007KT 28/13 A3001 RMK A01 T02820130  RH  039%=      5-min Rain = 0
KBR1 180343Z 02005KT 28/13 A3001 RMK A01 T02840130  RH  039%=      5-min Rain = 0
KBR1 180344Z 02004KT 29/13 A3001 RMK A01 T02850130  RH  039%=      5-min Rain = 0
KBR1 180345Z 00007KT 29/13 A3001 RMK A01 T02850131  RH  039%=      5-min Rain = 0
KBR1 180346Z 36008KT 28/13 A3001 RMK A01 T02840131  RH  039%=      5-min Rain = 0
KBR1 180347Z 00007KT 28/13 A3001 RMK A01 T02840131  RH  039%=      5-min Rain = 0
KBR1 180348Z 01010KT 28/13 A3001 RMK A01 T02840132  RH  039%=      5-min Rain = 0
KBR1 180349Z 02010KT 28/13 A3001 RMK A01 T02840131  RH  039%=      5-min Rain = 0
KBR1 180350Z 03009KT 28/13 A3001 RMK A01 T02830131  RH  039%=      5-min Rain = 0
KBR1 180351Z 02011KT 28/13 A3001 RMK A01 T02820132  RH  040%=      5-min Rain = 0
KBR1 180352Z 02009KT 28/13 A3001 RMK A01 T02810132  RH  040%=      5-min Rain = 0
KBR1 180353Z 04008KT 28/13 A3001 RMK A01 T02800132  RH  040%=      5-min Rain = 0
KBR1 180354Z 05006KT 28/13 A3001 RMK A01 T02790132  RH  040%=      5-min Rain = 0
KBR1 180355Z 04007KT 28/13 A3001 RMK A01 T02780132  RH  041%=      5-min Rain = 0
KBR1 180356Z 05008KT 28/13 A3001 RMK A01 T02780132  RH  041%=      5-min Rain = 0
KBR1 180357Z 06008KT 28/13 A3001 RMK A01 T02780131  RH  040%=      5-min Rain = 0
KBR1 180358Z 05010KT 28/13 A3001 RMK A01 T02790132  RH  040%=      5-min Rain = 0
KBR1 180359Z 04009KT 28/13 A3001 RMK A01 T02790132  RH  040%=      5-min Rain = 0
KBR1 180400Z 04009KT 28/13 A3001 RMK A01 T02790132  RH  040%=      5-min Rain = 0
KBR1 180401Z 04006KT 28/13 A3001 RMK A01 T02790132  RH  040%=      5-min Rain = 0
KBR1 180402Z 04005KT 28/13 A3001 RMK A01 T02790133  RH  041%=      5-min Rain = 0
KBR1 180403Z 04005KT 28/13 A3001 RMK A01 T02780133  RH  041%=      5-min Rain = 0
KBR1 180404Z 04007KT 28/13 A3001 RMK A01 T02770133  RH  041%=      5-min Rain = 0
KBR1 180405Z 04008KT 28/13 A3001 RMK A01 T02760133  RH  041%=      5-min Rain = 0
KBR1 180406Z 04010KT 28/13 A3001 RMK A01 T02750133  RH  042%=      5-min Rain = 0
KBR1 180407Z 04010KT 27/13 A3001 RMK A01 T02740132  RH  041%=      5-min Rain = 0
KBR1 180408Z 05009KT 28/13 A3001 RMK A01 T02750132  RH  041%=      5-min Rain = 0
KBR1 180409Z 05008KT 28/13 A3001 RMK A01 T02750132  RH  041%=      5-min Rain = 0
KBR1 180410Z 06008KT 28/13 A3001 RMK A01 T02750132  RH  041%=      5-min Rain = 0
KBR1 180411Z 06008KT 28/13 A3001 RMK A01 T02750132  RH  041%=      5-min Rain = 0
KBR1 180412Z 08008KT 28/13 A3001 RMK A01 T02750133  RH  041%=      5-min Rain = 0
KBR1 180413Z 08008KT 27/13 A3001 RMK A01 T02740133  RH  042%=      5-min Rain = 0
KBR1 180414Z 07008KT 27/13 A3001 RMK A01 T02730133  RH  042%=      5-min Rain = 0
KBR1 180415Z 07007KT 27/13 A3001 RMK A01 T02730132  RH  042%=      5-min Rain = 0
KBR1 180416Z 05009KT 27/13 A3001 RMK A01 T02730133  RH  042%=      5-min Rain = 0
KBR1 180417Z 05009KT 27/13 A3001 RMK A01 T02730134  RH  042%=      5-min Rain = 0
KBR1 180418Z 07011KT 27/13 A3001 RMK A01 T02730134  RH  042%=      5-min Rain = 0
KBR1 180419Z 06009KT 27/13 A3001 RMK A01 T02730134  RH  042%=      5-min Rain = 0
KBR1 180420Z 06008KT 27/13 A3001 RMK A01 T02730134  RH  042%=      5-min Rain = 0
KBR1 180421Z 06008KT 27/14 A3001 RMK A01 T02730135  RH  043%=      5-min Rain = 0
KBR1 180422Z 08006KT 27/14 A3001 RMK A01 T02730135  RH  043%=      5-min Rain = 0
KBR1 180423Z 08007KT 27/14 A3001 RMK A01 T02730135  RH  043%=      5-min Rain = 0
KBR1 180424Z 09007KT 27/14 A3001 RMK A01 T02730135  RH  043%=      5-min Rain = 0
KBR1 180425Z 09007KT 27/14 A3001 RMK A01 T02730135  RH  043%=      5-min Rain = 0
KBR1 180426Z 09007KT 27/13 A3001 RMK A01 T02740134  RH  042%=      5-min Rain = 0
KBR1 180427Z 09007KT 28/13 A3001 RMK A01 T02760134  RH  042%=      5-min Rain = 0
KBR1 180428Z 08008KT 28/14 A3001 RMK A01 T02770135  RH  042%=      5-min Rain = 0
KBR1 180429Z 07008KT 28/13 A3001 RMK A01 T02770134  RH  042%=      5-min Rain = 0
KBR1 180430Z 08005KT 28/13 A3001 RMK A01 T02770134  RH  042%=      5-min Rain = 0
KBR1 180431Z 09006KT 28/13 A3001 RMK A01 T02760133  RH  041%=      5-min Rain = 0
KBR1 180432Z 08006KT 28/13 A3001 RMK A01 T02770133  RH  041%=      5-min Rain = 0
KBR1 180433Z 08005KT 28/13 A3001 RMK A01 T02770133  RH  041%=      5-min Rain = 0
KBR1 180434Z 09007KT 28/13 A3001 RMK A01 T02770134  RH  041%=      5-min Rain = 0
KBR1 180435Z 09007KT 28/13 A3001 RMK A01 T02760134  RH  042%=      5-min Rain = 0
KBR1 180436Z 10008KT 28/13 A30 RMK A01 T02750134  RH  042%=      5-min Rain = 0
KBR1 180437Z 10009KT 28/13 A30 RMK A01 T02760133  RH  041%=      5-min Rain = 0
KBR1 180438Z 10008KT 28/13 A30 RMK A01 T02780133  RH  041%=      5-min Rain = 0
KBR1 180439Z 09009KT 28/13 A30 RMK A01 T02790133  RH  041%=      5-min Rain = 0
KBR1 180440Z 11007KT 28/13 A30 RMK A01 T02800133  RH  040%=      5-min Rain = 0
KBR1 180441Z 12006KT 28/13 A30 RMK A01 T02800134  RH  041%=      5-min Rain = 0
KBR1 180442Z 10007KT 28/13 A30 RMK A01 T02780133  RH  041%=      5-min Rain = 0
KBR1 180443Z 11007KT 28/13 A30 RMK A01 T02780133  RH  041%=      5-min Rain = 0
KBR1 180444Z 10007KT 28/13 A30 RMK A01 T02770133  RH  041%=      5-min Rain = 0
KBR1 180445Z 12006KT 28/13 A30 RMK A01 T02770133  RH  041%=      5-min Rain = 0
KBR1 180446Z 12007KT 28/13 A30 RMK A01 T02780132  RH  041%=      5-min Rain = 0
KBR1 180447Z 11006KT 28/13 A30 RMK A01 T02800133  RH  040%=      5-min Rain = 0
KBR1 180448Z 10007KT 28/13 A30 RMK A01 T02810133  RH  040%=      5-min Rain = 0
KBR1 180449Z 11007KT 28/13 A30 RMK A01 T02790133  RH  041%=      5-min Rain = 0
KBR1 180450Z 11007KT 28/13 A30 RMK A01 T02780133  RH  041%=      5-min Rain = 0
KBR1 180451Z 11007KT 28/13 A30 RMK A01 T02760133  RH  041%=      5-min Rain = 0
KBR1 180452Z 11008KT 28/13 A30 RMK A01 T02750134  RH  042%=      5-min Rain = 0
KBR1 180453Z 11008KT 27/13 A30 RMK A01 T02740134  RH  042%=      5-min Rain = 0
KBR1 180454Z 12008KT 27/13 A30 RMK A01 T02720133  RH  042%=      5-min Rain = 0
KBR1 180455Z 12008KT 27/13 A30 RMK A01 T02720133  RH  042%=      5-min Rain = 0
KBR1 180456Z 12008KT 27/13 A30 RMK A01 T02720133  RH  042%=      5-min Rain = 0
KBR1 180457Z 13009KT 27/13 A30 RMK A01 T02720133  RH  042%=      5-min Rain = 0
KBR1 180458Z 13008KT 27/13 A30 RMK A01 T02720133  RH  042%=      5-min Rain = 0
KBR1 180459Z 13010KT 27/13 A30 RMK A01 T02730132  RH  042%=      5-min Rain = 0

Page generated in 0.0721 seconds.